<?xml version="1.0" encoding="UTF-8" standalone="no" ?>
<gpx xmlns="http://www.topografix.com/GPX/1/1" xmlns:xsi="http://www.w3.org/2001/XMLSchema-instance" xsi:schemaLocation="http://www.topografix.com/GPX/1/1 http://www.topografix.com/GPX/1/1/gpx.xsd" version="1.1" creator="VisuGPX - https://www.visugpx.com">
  <metadata>
    <name>Les moulins de la Véroncle</name>
    <desc><![CDATA[Balade dans les gorges de la Véroncle .]]></desc>
  </metadata>
  <trk>
    <name><![CDATA[2017-04-24 14:37:28]]></name>
    <trkseg>
      <trkpt lat="43.92801" lon="5.20832">
        <ele>455.8</ele>
        <time>2017-04-24T07:30:50Z</time>
      </trkpt>
      <trkpt lat="43.92801" lon="5.20832">
        <ele>455.8</ele>
        <time>2017-04-24T07:30:51Z</time>
      </trkpt>
      <trkpt lat="43.92801" lon="5.20832">
        <ele>457.72</ele>
        <time>2017-04-24T07:30:55Z</time>
      </trkpt>
      <trkpt lat="43.928" lon="5.20834">
        <ele>456.76</ele>
        <time>2017-04-24T07:31:19Z</time>
      </trkpt>
      <trkpt lat="43.92803" lon="5.20838">
        <ele>456.76</ele>
        <time>2017-04-24T07:31:51Z</time>
      </trkpt>
      <trkpt lat="43.92804" lon="5.20837">
        <ele>456.76</ele>
        <time>2017-04-24T07:32:32Z</time>
      </trkpt>
      <trkpt lat="43.92801" lon="5.20837">
        <ele>457.72</ele>
        <time>2017-04-24T07:32:48Z</time>
      </trkpt>
      <trkpt lat="43.92804" lon="5.20833">
        <ele>457.72</ele>
        <time>2017-04-24T07:33:05Z</time>
      </trkpt>
      <trkpt lat="43.92807" lon="5.20832">
        <ele>457.72</ele>
        <time>2017-04-24T07:33:18Z</time>
      </trkpt>
      <trkpt lat="43.92807" lon="5.2083">
        <ele>457.72</ele>
        <time>2017-04-24T07:33:36Z</time>
      </trkpt>
      <trkpt lat="43.92808" lon="5.20832">
        <ele>457.72</ele>
        <time>2017-04-24T07:34:00Z</time>
      </trkpt>
      <trkpt lat="43.92807" lon="5.20833">
        <ele>450.03</ele>
        <time>2017-04-24T07:34:12Z</time>
      </trkpt>
      <trkpt lat="43.92807" lon="5.20833">
        <ele>465.9</ele>
        <time>2017-04-24T07:34:13Z</time>
      </trkpt>
      <trkpt lat="43.92808" lon="5.20833">
        <ele>458.21</ele>
        <time>2017-04-24T07:34:14Z</time>
      </trkpt>
      <trkpt lat="43.92807" lon="5.2083">
        <ele>458.21</ele>
        <time>2017-04-24T07:34:28Z</time>
      </trkpt>
      <trkpt lat="43.92807" lon="5.20829">
        <ele>456.76</ele>
        <time>2017-04-24T07:34:30Z</time>
      </trkpt>
      <trkpt lat="43.92809" lon="5.20832">
        <ele>456.76</ele>
        <time>2017-04-24T07:34:56Z</time>
      </trkpt>
      <trkpt lat="43.92812" lon="5.20834">
        <ele>456.76</ele>
        <time>2017-04-24T07:35:20Z</time>
      </trkpt>
      <trkpt lat="43.92823" lon="5.20844">
        <ele>456.76</ele>
        <time>2017-04-24T07:35:35Z</time>
      </trkpt>
      <trkpt lat="43.92826" lon="5.20847">
        <ele>456.76</ele>
        <time>2017-04-24T07:35:40Z</time>
      </trkpt>
      <trkpt lat="43.92838" lon="5.20862">
        <ele>458.21</ele>
        <time>2017-04-24T07:35:58Z</time>
      </trkpt>
      <trkpt lat="43.92849" lon="5.20881">
        <ele>459.17</ele>
        <time>2017-04-24T07:36:16Z</time>
      </trkpt>
      <trkpt lat="43.92864" lon="5.20902">
        <ele>460.61</ele>
        <time>2017-04-24T07:36:37Z</time>
      </trkpt>
      <trkpt lat="43.92871" lon="5.20928">
        <ele>461.57</ele>
        <time>2017-04-24T07:36:57Z</time>
      </trkpt>
      <trkpt lat="43.9288" lon="5.20955">
        <ele>462.05</ele>
        <time>2017-04-24T07:37:17Z</time>
      </trkpt>
      <trkpt lat="43.9289" lon="5.20979">
        <ele>463.01</ele>
        <time>2017-04-24T07:37:36Z</time>
      </trkpt>
      <trkpt lat="43.92905" lon="5.21007">
        <ele>464.45</ele>
        <time>2017-04-24T07:37:58Z</time>
      </trkpt>
      <trkpt lat="43.92922" lon="5.21028">
        <ele>465.42</ele>
        <time>2017-04-24T07:38:20Z</time>
      </trkpt>
      <trkpt lat="43.92942" lon="5.21047">
        <ele>465.9</ele>
        <time>2017-04-24T07:38:43Z</time>
      </trkpt>
      <trkpt lat="43.92961" lon="5.21062">
        <ele>466.86</ele>
        <time>2017-04-24T07:39:03Z</time>
      </trkpt>
      <trkpt lat="43.92981" lon="5.21081">
        <ele>467.82</ele>
        <time>2017-04-24T07:39:26Z</time>
      </trkpt>
      <trkpt lat="43.92999" lon="5.21098">
        <ele>468.78</ele>
        <time>2017-04-24T07:39:46Z</time>
      </trkpt>
      <trkpt lat="43.93006" lon="5.21115">
        <ele>468.78</ele>
        <time>2017-04-24T07:40:03Z</time>
      </trkpt>
      <trkpt lat="43.93009" lon="5.2112">
        <ele>467.34</ele>
        <time>2017-04-24T07:40:07Z</time>
      </trkpt>
      <trkpt lat="43.93013" lon="5.21129">
        <ele>466.86</ele>
        <time>2017-04-24T07:40:16Z</time>
      </trkpt>
      <trkpt lat="43.93018" lon="5.21147">
        <ele>466.38</ele>
        <time>2017-04-24T07:40:30Z</time>
      </trkpt>
      <trkpt lat="43.93019" lon="5.21168">
        <ele>464.93</ele>
        <time>2017-04-24T07:40:48Z</time>
      </trkpt>
      <trkpt lat="43.93011" lon="5.21181">
        <ele>463.01</ele>
        <time>2017-04-24T07:41:05Z</time>
      </trkpt>
      <trkpt lat="43.93006" lon="5.21195">
        <ele>461.57</ele>
        <time>2017-04-24T07:41:18Z</time>
      </trkpt>
      <trkpt lat="43.92998" lon="5.2121">
        <ele>459.65</ele>
        <time>2017-04-24T07:41:35Z</time>
      </trkpt>
      <trkpt lat="43.92992" lon="5.21226">
        <ele>459.65</ele>
        <time>2017-04-24T07:41:50Z</time>
      </trkpt>
      <trkpt lat="43.92981" lon="5.21247">
        <ele>459.65</ele>
        <time>2017-04-24T07:42:08Z</time>
      </trkpt>
      <trkpt lat="43.9298" lon="5.21248">
        <ele>459.65</ele>
        <time>2017-04-24T07:42:09Z</time>
      </trkpt>
      <trkpt lat="43.92967" lon="5.21267">
        <ele>461.09</ele>
        <time>2017-04-24T07:42:28Z</time>
      </trkpt>
      <trkpt lat="43.92954" lon="5.21282">
        <ele>463.01</ele>
        <time>2017-04-24T07:42:46Z</time>
      </trkpt>
      <trkpt lat="43.92942" lon="5.21299">
        <ele>464.45</ele>
        <time>2017-04-24T07:43:04Z</time>
      </trkpt>
      <trkpt lat="43.92938" lon="5.21302">
        <ele>464.93</ele>
        <time>2017-04-24T07:43:08Z</time>
      </trkpt>
      <trkpt lat="43.92936" lon="5.21303">
        <ele>464.93</ele>
        <time>2017-04-24T07:43:10Z</time>
      </trkpt>
      <trkpt lat="43.92916" lon="5.21315">
        <ele>464.45</ele>
        <time>2017-04-24T07:43:32Z</time>
      </trkpt>
      <trkpt lat="43.92899" lon="5.21321">
        <ele>462.05</ele>
        <time>2017-04-24T07:43:50Z</time>
      </trkpt>
      <trkpt lat="43.92881" lon="5.2133">
        <ele>459.65</ele>
        <time>2017-04-24T07:44:13Z</time>
      </trkpt>
      <trkpt lat="43.92866" lon="5.21338">
        <ele>457.24</ele>
        <time>2017-04-24T07:44:31Z</time>
      </trkpt>
      <trkpt lat="43.92852" lon="5.21342">
        <ele>455.32</ele>
        <time>2017-04-24T07:44:50Z</time>
      </trkpt>
      <trkpt lat="43.92837" lon="5.21348">
        <ele>452.92</ele>
        <time>2017-04-24T07:45:09Z</time>
      </trkpt>
      <trkpt lat="43.92828" lon="5.21356">
        <ele>451</ele>
        <time>2017-04-24T07:45:24Z</time>
      </trkpt>
      <trkpt lat="43.92814" lon="5.21361">
        <ele>449.07</ele>
        <time>2017-04-24T07:45:41Z</time>
      </trkpt>
      <trkpt lat="43.92806" lon="5.21365">
        <ele>447.63</ele>
        <time>2017-04-24T07:45:51Z</time>
      </trkpt>
      <trkpt lat="43.92795" lon="5.21379">
        <ele>445.23</ele>
        <time>2017-04-24T07:46:09Z</time>
      </trkpt>
      <trkpt lat="43.92786" lon="5.2139">
        <ele>443.31</ele>
        <time>2017-04-24T07:46:25Z</time>
      </trkpt>
      <trkpt lat="43.92769" lon="5.21404">
        <ele>440.42</ele>
        <time>2017-04-24T07:46:48Z</time>
      </trkpt>
      <trkpt lat="43.92758" lon="5.21419">
        <ele>438.02</ele>
        <time>2017-04-24T07:47:07Z</time>
      </trkpt>
      <trkpt lat="43.92743" lon="5.21429">
        <ele>436.1</ele>
        <time>2017-04-24T07:47:25Z</time>
      </trkpt>
      <trkpt lat="43.9273" lon="5.21448">
        <ele>433.21</ele>
        <time>2017-04-24T07:47:47Z</time>
      </trkpt>
      <trkpt lat="43.9272" lon="5.21465">
        <ele>430.81</ele>
        <time>2017-04-24T07:48:06Z</time>
      </trkpt>
      <trkpt lat="43.92711" lon="5.2148">
        <ele>428.89</ele>
        <time>2017-04-24T07:48:23Z</time>
      </trkpt>
      <trkpt lat="43.92704" lon="5.2149">
        <ele>427.44</ele>
        <time>2017-04-24T07:48:34Z</time>
      </trkpt>
      <trkpt lat="43.92697" lon="5.21511">
        <ele>425.04</ele>
        <time>2017-04-24T07:48:53Z</time>
      </trkpt>
      <trkpt lat="43.92692" lon="5.21529">
        <ele>422.64</ele>
        <time>2017-04-24T07:49:10Z</time>
      </trkpt>
      <trkpt lat="43.92685" lon="5.21538">
        <ele>421.19</ele>
        <time>2017-04-24T07:49:21Z</time>
      </trkpt>
      <trkpt lat="43.92675" lon="5.21554">
        <ele>418.79</ele>
        <time>2017-04-24T07:49:38Z</time>
      </trkpt>
      <trkpt lat="43.92665" lon="5.21568">
        <ele>416.87</ele>
        <time>2017-04-24T07:49:53Z</time>
      </trkpt>
      <trkpt lat="43.92656" lon="5.21586">
        <ele>415.43</ele>
        <time>2017-04-24T07:50:10Z</time>
      </trkpt>
      <trkpt lat="43.92645" lon="5.21606">
        <ele>412.54</ele>
        <time>2017-04-24T07:50:31Z</time>
      </trkpt>
      <trkpt lat="43.92639" lon="5.21615">
        <ele>411.58</ele>
        <time>2017-04-24T07:50:41Z</time>
      </trkpt>
      <trkpt lat="43.92634" lon="5.21638">
        <ele>409.18</ele>
        <time>2017-04-24T07:51:01Z</time>
      </trkpt>
      <trkpt lat="43.92626" lon="5.21653">
        <ele>407.26</ele>
        <time>2017-04-24T07:51:17Z</time>
      </trkpt>
      <trkpt lat="43.9262" lon="5.21672">
        <ele>404.37</ele>
        <time>2017-04-24T07:51:35Z</time>
      </trkpt>
      <trkpt lat="43.92607" lon="5.21686">
        <ele>402.45</ele>
        <time>2017-04-24T07:51:54Z</time>
      </trkpt>
      <trkpt lat="43.92602" lon="5.21693">
        <ele>401.49</ele>
        <time>2017-04-24T07:52:03Z</time>
      </trkpt>
      <trkpt lat="43.92586" lon="5.21707">
        <ele>399.57</ele>
        <time>2017-04-24T07:52:23Z</time>
      </trkpt>
      <trkpt lat="43.92571" lon="5.21728">
        <ele>397.64</ele>
        <time>2017-04-24T07:52:45Z</time>
      </trkpt>
      <trkpt lat="43.92561" lon="5.21747">
        <ele>394.76</ele>
        <time>2017-04-24T07:53:04Z</time>
      </trkpt>
      <trkpt lat="43.92554" lon="5.21764">
        <ele>392.36</ele>
        <time>2017-04-24T07:53:21Z</time>
      </trkpt>
      <trkpt lat="43.92553" lon="5.21765">
        <ele>392.36</ele>
        <time>2017-04-24T07:53:22Z</time>
      </trkpt>
      <trkpt lat="43.92546" lon="5.21769">
        <ele>391.39</ele>
        <time>2017-04-24T07:53:30Z</time>
      </trkpt>
      <trkpt lat="43.92534" lon="5.21787">
        <ele>388.51</ele>
        <time>2017-04-24T07:53:50Z</time>
      </trkpt>
      <trkpt lat="43.92527" lon="5.21799">
        <ele>386.59</ele>
        <time>2017-04-24T07:54:04Z</time>
      </trkpt>
      <trkpt lat="43.92519" lon="5.21817">
        <ele>384.18</ele>
        <time>2017-04-24T07:54:22Z</time>
      </trkpt>
      <trkpt lat="43.92518" lon="5.21834">
        <ele>381.78</ele>
        <time>2017-04-24T07:54:39Z</time>
      </trkpt>
      <trkpt lat="43.92516" lon="5.21852">
        <ele>378.9</ele>
        <time>2017-04-24T07:54:55Z</time>
      </trkpt>
      <trkpt lat="43.92512" lon="5.21865">
        <ele>377.45</ele>
        <time>2017-04-24T07:55:09Z</time>
      </trkpt>
      <trkpt lat="43.92507" lon="5.21886">
        <ele>375.05</ele>
        <time>2017-04-24T07:55:27Z</time>
      </trkpt>
      <trkpt lat="43.92503" lon="5.21903">
        <ele>373.13</ele>
        <time>2017-04-24T07:55:42Z</time>
      </trkpt>
      <trkpt lat="43.92495" lon="5.21914">
        <ele>371.69</ele>
        <time>2017-04-24T07:55:58Z</time>
      </trkpt>
      <trkpt lat="43.92494" lon="5.21914">
        <ele>371.69</ele>
        <time>2017-04-24T07:56:18Z</time>
      </trkpt>
      <trkpt lat="43.92495" lon="5.21916">
        <ele>371.21</ele>
        <time>2017-04-24T07:56:33Z</time>
      </trkpt>
      <trkpt lat="43.92495" lon="5.21915">
        <ele>371.21</ele>
        <time>2017-04-24T07:57:04Z</time>
      </trkpt>
      <trkpt lat="43.92494" lon="5.21917">
        <ele>371.21</ele>
        <time>2017-04-24T07:57:32Z</time>
      </trkpt>
      <trkpt lat="43.92493" lon="5.21917">
        <ele>371.21</ele>
        <time>2017-04-24T07:57:52Z</time>
      </trkpt>
      <trkpt lat="43.92493" lon="5.21917">
        <ele>371.21</ele>
        <time>2017-04-24T07:58:23Z</time>
      </trkpt>
      <trkpt lat="43.92491" lon="5.21921">
        <ele>370.73</ele>
        <time>2017-04-24T07:58:42Z</time>
      </trkpt>
      <trkpt lat="43.92486" lon="5.21931">
        <ele>369.28</ele>
        <time>2017-04-24T07:59:00Z</time>
      </trkpt>
      <trkpt lat="43.92482" lon="5.21935">
        <ele>369.28</ele>
        <time>2017-04-24T07:59:05Z</time>
      </trkpt>
      <trkpt lat="43.92472" lon="5.21949">
        <ele>366.88</ele>
        <time>2017-04-24T07:59:23Z</time>
      </trkpt>
      <trkpt lat="43.92461" lon="5.21958">
        <ele>365.44</ele>
        <time>2017-04-24T07:59:40Z</time>
      </trkpt>
      <trkpt lat="43.92454" lon="5.21972">
        <ele>364</ele>
        <time>2017-04-24T07:59:55Z</time>
      </trkpt>
      <trkpt lat="43.92445" lon="5.21987">
        <ele>362.07</ele>
        <time>2017-04-24T08:00:11Z</time>
      </trkpt>
      <trkpt lat="43.92444" lon="5.21988">
        <ele>362.07</ele>
        <time>2017-04-24T08:00:13Z</time>
      </trkpt>
      <trkpt lat="43.92432" lon="5.22002">
        <ele>359.67</ele>
        <time>2017-04-24T08:00:31Z</time>
      </trkpt>
      <trkpt lat="43.92424" lon="5.22012">
        <ele>358.23</ele>
        <time>2017-04-24T08:00:45Z</time>
      </trkpt>
      <trkpt lat="43.92417" lon="5.22029">
        <ele>356.79</ele>
        <time>2017-04-24T08:01:03Z</time>
      </trkpt>
      <trkpt lat="43.92413" lon="5.22043">
        <ele>354.86</ele>
        <time>2017-04-24T08:01:16Z</time>
      </trkpt>
      <trkpt lat="43.92414" lon="5.22066">
        <ele>352.94</ele>
        <time>2017-04-24T08:01:34Z</time>
      </trkpt>
      <trkpt lat="43.92415" lon="5.22071">
        <ele>352.94</ele>
        <time>2017-04-24T08:01:38Z</time>
      </trkpt>
      <trkpt lat="43.92415" lon="5.22087">
        <ele>351.02</ele>
        <time>2017-04-24T08:01:53Z</time>
      </trkpt>
      <trkpt lat="43.92405" lon="5.22096">
        <ele>349.1</ele>
        <time>2017-04-24T08:02:09Z</time>
      </trkpt>
      <trkpt lat="43.92404" lon="5.22108">
        <ele>347.65</ele>
        <time>2017-04-24T08:02:22Z</time>
      </trkpt>
      <trkpt lat="43.924" lon="5.22128">
        <ele>346.21</ele>
        <time>2017-04-24T08:02:39Z</time>
      </trkpt>
      <trkpt lat="43.92399" lon="5.22132">
        <ele>345.73</ele>
        <time>2017-04-24T08:02:43Z</time>
      </trkpt>
      <trkpt lat="43.92394" lon="5.2215">
        <ele>342.85</ele>
        <time>2017-04-24T08:02:59Z</time>
      </trkpt>
      <trkpt lat="43.92389" lon="5.22172">
        <ele>340.44</ele>
        <time>2017-04-24T08:03:19Z</time>
      </trkpt>
      <trkpt lat="43.92384" lon="5.22193">
        <ele>338.04</ele>
        <time>2017-04-24T08:03:38Z</time>
      </trkpt>
      <trkpt lat="43.92378" lon="5.22204">
        <ele>336.6</ele>
        <time>2017-04-24T08:03:50Z</time>
      </trkpt>
      <trkpt lat="43.92376" lon="5.22223">
        <ele>335.16</ele>
        <time>2017-04-24T08:04:06Z</time>
      </trkpt>
      <trkpt lat="43.92381" lon="5.22236">
        <ele>333.23</ele>
        <time>2017-04-24T08:04:22Z</time>
      </trkpt>
      <trkpt lat="43.92383" lon="5.22235">
        <ele>332.75</ele>
        <time>2017-04-24T08:04:35Z</time>
      </trkpt>
      <trkpt lat="43.92383" lon="5.22235">
        <ele>332.75</ele>
        <time>2017-04-24T08:04:59Z</time>
      </trkpt>
      <trkpt lat="43.92376" lon="5.22235">
        <ele>332.75</ele>
        <time>2017-04-24T08:05:12Z</time>
      </trkpt>
      <trkpt lat="43.9237" lon="5.22241">
        <ele>332.27</ele>
        <time>2017-04-24T08:05:27Z</time>
      </trkpt>
      <trkpt lat="43.92369" lon="5.2226">
        <ele>330.83</ele>
        <time>2017-04-24T08:05:43Z</time>
      </trkpt>
      <trkpt lat="43.92366" lon="5.22267">
        <ele>330.35</ele>
        <time>2017-04-24T08:05:50Z</time>
      </trkpt>
      <trkpt lat="43.92356" lon="5.22283">
        <ele>328.43</ele>
        <time>2017-04-24T08:06:07Z</time>
      </trkpt>
      <trkpt lat="43.92354" lon="5.22284">
        <ele>327.95</ele>
        <time>2017-04-24T08:06:09Z</time>
      </trkpt>
      <trkpt lat="43.92344" lon="5.22293">
        <ele>326.5</ele>
        <time>2017-04-24T08:06:22Z</time>
      </trkpt>
      <trkpt lat="43.92336" lon="5.22314">
        <ele>324.58</ele>
        <time>2017-04-24T08:06:40Z</time>
      </trkpt>
      <trkpt lat="43.92332" lon="5.2232">
        <ele>323.62</ele>
        <time>2017-04-24T08:06:47Z</time>
      </trkpt>
      <trkpt lat="43.92327" lon="5.22337">
        <ele>322.18</ele>
        <time>2017-04-24T08:07:03Z</time>
      </trkpt>
      <trkpt lat="43.92322" lon="5.22346">
        <ele>321.7</ele>
        <time>2017-04-24T08:07:23Z</time>
      </trkpt>
      <trkpt lat="43.92314" lon="5.22358">
        <ele>321.22</ele>
        <time>2017-04-24T08:07:35Z</time>
      </trkpt>
      <trkpt lat="43.92306" lon="5.22375">
        <ele>319.78</ele>
        <time>2017-04-24T08:07:51Z</time>
      </trkpt>
      <trkpt lat="43.92296" lon="5.22391">
        <ele>317.85</ele>
        <time>2017-04-24T08:08:07Z</time>
      </trkpt>
      <trkpt lat="43.92285" lon="5.22397">
        <ele>315.93</ele>
        <time>2017-04-24T08:08:21Z</time>
      </trkpt>
      <trkpt lat="43.92273" lon="5.22401">
        <ele>314.01</ele>
        <time>2017-04-24T08:08:35Z</time>
      </trkpt>
      <trkpt lat="43.92259" lon="5.22413">
        <ele>312.09</ele>
        <time>2017-04-24T08:08:54Z</time>
      </trkpt>
      <trkpt lat="43.92245" lon="5.22423">
        <ele>309.2</ele>
        <time>2017-04-24T08:09:12Z</time>
      </trkpt>
      <trkpt lat="43.92237" lon="5.22431">
        <ele>307.28</ele>
        <time>2017-04-24T08:09:28Z</time>
      </trkpt>
      <trkpt lat="43.92227" lon="5.22435">
        <ele>305.84</ele>
        <time>2017-04-24T08:09:43Z</time>
      </trkpt>
      <trkpt lat="43.92213" lon="5.22436">
        <ele>303.43</ele>
        <time>2017-04-24T08:09:59Z</time>
      </trkpt>
      <trkpt lat="43.92199" lon="5.22439">
        <ele>301.51</ele>
        <time>2017-04-24T08:10:15Z</time>
      </trkpt>
      <trkpt lat="43.92193" lon="5.22441">
        <ele>300.55</ele>
        <time>2017-04-24T08:10:22Z</time>
      </trkpt>
      <trkpt lat="43.92191" lon="5.22444">
        <ele>300.07</ele>
        <time>2017-04-24T08:10:25Z</time>
      </trkpt>
      <trkpt lat="43.92179" lon="5.22457">
        <ele>297.67</ele>
        <time>2017-04-24T08:10:44Z</time>
      </trkpt>
      <trkpt lat="43.92169" lon="5.2247">
        <ele>295.74</ele>
        <time>2017-04-24T08:11:00Z</time>
      </trkpt>
      <trkpt lat="43.92157" lon="5.22474">
        <ele>293.82</ele>
        <time>2017-04-24T08:11:14Z</time>
      </trkpt>
      <trkpt lat="43.9215" lon="5.22478">
        <ele>292.38</ele>
        <time>2017-04-24T08:11:22Z</time>
      </trkpt>
      <trkpt lat="43.92134" lon="5.22489">
        <ele>290.46</ele>
        <time>2017-04-24T08:11:41Z</time>
      </trkpt>
      <trkpt lat="43.92123" lon="5.22499">
        <ele>289.01</ele>
        <time>2017-04-24T08:11:56Z</time>
      </trkpt>
      <trkpt lat="43.92111" lon="5.22507">
        <ele>287.09</ele>
        <time>2017-04-24T08:12:12Z</time>
      </trkpt>
      <trkpt lat="43.921" lon="5.22515">
        <ele>285.65</ele>
        <time>2017-04-24T08:12:28Z</time>
      </trkpt>
      <trkpt lat="43.9209" lon="5.22528">
        <ele>283.73</ele>
        <time>2017-04-24T08:12:44Z</time>
      </trkpt>
      <trkpt lat="43.92079" lon="5.22534">
        <ele>281.8</ele>
        <time>2017-04-24T08:12:59Z</time>
      </trkpt>
      <trkpt lat="43.92068" lon="5.22545">
        <ele>280.36</ele>
        <time>2017-04-24T08:13:16Z</time>
      </trkpt>
      <trkpt lat="43.92056" lon="5.22551">
        <ele>277.96</ele>
        <time>2017-04-24T08:13:32Z</time>
      </trkpt>
      <trkpt lat="43.92045" lon="5.22559">
        <ele>276.04</ele>
        <time>2017-04-24T08:13:47Z</time>
      </trkpt>
      <trkpt lat="43.92038" lon="5.22568">
        <ele>274.59</ele>
        <time>2017-04-24T08:14:00Z</time>
      </trkpt>
      <trkpt lat="43.92027" lon="5.22573">
        <ele>272.67</ele>
        <time>2017-04-24T08:14:16Z</time>
      </trkpt>
      <trkpt lat="43.92016" lon="5.2258">
        <ele>270.75</ele>
        <time>2017-04-24T08:14:32Z</time>
      </trkpt>
      <trkpt lat="43.92003" lon="5.22586">
        <ele>269.31</ele>
        <time>2017-04-24T08:14:47Z</time>
      </trkpt>
      <trkpt lat="43.9199" lon="5.22594">
        <ele>267.38</ele>
        <time>2017-04-24T08:15:03Z</time>
      </trkpt>
      <trkpt lat="43.91979" lon="5.22606">
        <ele>265.46</ele>
        <time>2017-04-24T08:15:19Z</time>
      </trkpt>
      <trkpt lat="43.91966" lon="5.22617">
        <ele>263.06</ele>
        <time>2017-04-24T08:15:37Z</time>
      </trkpt>
      <trkpt lat="43.91958" lon="5.22619">
        <ele>262.1</ele>
        <time>2017-04-24T08:15:46Z</time>
      </trkpt>
      <trkpt lat="43.91947" lon="5.22626">
        <ele>260.65</ele>
        <time>2017-04-24T08:16:01Z</time>
      </trkpt>
      <trkpt lat="43.91944" lon="5.22627">
        <ele>260.17</ele>
        <time>2017-04-24T08:16:04Z</time>
      </trkpt>
      <trkpt lat="43.91943" lon="5.22628">
        <ele>260.17</ele>
        <time>2017-04-24T08:16:06Z</time>
      </trkpt>
      <trkpt lat="43.91935" lon="5.22638">
        <ele>258.73</ele>
        <time>2017-04-24T08:16:18Z</time>
      </trkpt>
      <trkpt lat="43.91923" lon="5.22646">
        <ele>256.81</ele>
        <time>2017-04-24T08:16:33Z</time>
      </trkpt>
      <trkpt lat="43.9191" lon="5.22656">
        <ele>254.41</ele>
        <time>2017-04-24T08:16:51Z</time>
      </trkpt>
      <trkpt lat="43.91895" lon="5.22664">
        <ele>252</ele>
        <time>2017-04-24T08:17:09Z</time>
      </trkpt>
      <trkpt lat="43.91884" lon="5.22678">
        <ele>249.6</ele>
        <time>2017-04-24T08:17:26Z</time>
      </trkpt>
      <trkpt lat="43.91884" lon="5.22688">
        <ele>249.12</ele>
        <time>2017-04-24T08:17:40Z</time>
      </trkpt>
      <trkpt lat="43.91891" lon="5.22693">
        <ele>247.2</ele>
        <time>2017-04-24T08:17:58Z</time>
      </trkpt>
      <trkpt lat="43.91896" lon="5.22695">
        <ele>246.23</ele>
        <time>2017-04-24T08:18:12Z</time>
      </trkpt>
      <trkpt lat="43.919" lon="5.22694">
        <ele>245.27</ele>
        <time>2017-04-24T08:18:25Z</time>
      </trkpt>
      <trkpt lat="43.91902" lon="5.22693">
        <ele>245.27</ele>
        <time>2017-04-24T08:18:46Z</time>
      </trkpt>
      <trkpt lat="43.91908" lon="5.22695">
        <ele>244.31</ele>
        <time>2017-04-24T08:19:00Z</time>
      </trkpt>
      <trkpt lat="43.91911" lon="5.22697">
        <ele>244.31</ele>
        <time>2017-04-24T08:19:18Z</time>
      </trkpt>
      <trkpt lat="43.91919" lon="5.227">
        <ele>242.87</ele>
        <time>2017-04-24T08:19:33Z</time>
      </trkpt>
      <trkpt lat="43.91922" lon="5.227">
        <ele>242.87</ele>
        <time>2017-04-24T08:19:49Z</time>
      </trkpt>
      <trkpt lat="43.91924" lon="5.22701">
        <ele>242.39</ele>
        <time>2017-04-24T08:20:08Z</time>
      </trkpt>
      <trkpt lat="43.91929" lon="5.22705">
        <ele>240.95</ele>
        <time>2017-04-24T08:20:21Z</time>
      </trkpt>
      <trkpt lat="43.91926" lon="5.22707">
        <ele>239.51</ele>
        <time>2017-04-24T08:20:34Z</time>
      </trkpt>
      <trkpt lat="43.91916" lon="5.22712">
        <ele>237.58</ele>
        <time>2017-04-24T08:20:52Z</time>
      </trkpt>
      <trkpt lat="43.91909" lon="5.22716">
        <ele>235.66</ele>
        <time>2017-04-24T08:21:06Z</time>
      </trkpt>
      <trkpt lat="43.919" lon="5.2272">
        <ele>233.26</ele>
        <time>2017-04-24T08:21:22Z</time>
      </trkpt>
      <trkpt lat="43.91891" lon="5.22725">
        <ele>231.33</ele>
        <time>2017-04-24T08:21:37Z</time>
      </trkpt>
      <trkpt lat="43.91878" lon="5.22728">
        <ele>228.45</ele>
        <time>2017-04-24T08:21:56Z</time>
      </trkpt>
      <trkpt lat="43.9187" lon="5.22736">
        <ele>227.01</ele>
        <time>2017-04-24T08:22:12Z</time>
      </trkpt>
      <trkpt lat="43.91879" lon="5.2274">
        <ele>225.09</ele>
        <time>2017-04-24T08:22:27Z</time>
      </trkpt>
      <trkpt lat="43.91879" lon="5.2274">
        <ele>225.09</ele>
        <time>2017-04-24T08:22:28Z</time>
      </trkpt>
      <trkpt lat="43.91887" lon="5.22746">
        <ele>223.16</ele>
        <time>2017-04-24T08:22:42Z</time>
      </trkpt>
      <trkpt lat="43.91897" lon="5.2275">
        <ele>220.76</ele>
        <time>2017-04-24T08:23:00Z</time>
      </trkpt>
      <trkpt lat="43.919" lon="5.2275">
        <ele>220.28</ele>
        <time>2017-04-24T08:23:16Z</time>
      </trkpt>
      <trkpt lat="43.91902" lon="5.22748">
        <ele>219.8</ele>
        <time>2017-04-24T08:23:28Z</time>
      </trkpt>
      <trkpt lat="43.91903" lon="5.22747">
        <ele>218.84</ele>
        <time>2017-04-24T08:23:44Z</time>
      </trkpt>
      <trkpt lat="43.91908" lon="5.22746">
        <ele>218.84</ele>
        <time>2017-04-24T08:24:03Z</time>
      </trkpt>
      <trkpt lat="43.91916" lon="5.22745">
        <ele>217.4</ele>
        <time>2017-04-24T08:24:20Z</time>
      </trkpt>
      <trkpt lat="43.91918" lon="5.22744">
        <ele>216.91</ele>
        <time>2017-04-24T08:24:36Z</time>
      </trkpt>
      <trkpt lat="43.91917" lon="5.22739">
        <ele>216.91</ele>
        <time>2017-04-24T08:24:54Z</time>
      </trkpt>
      <trkpt lat="43.91917" lon="5.22741">
        <ele>216.43</ele>
        <time>2017-04-24T08:25:10Z</time>
      </trkpt>
      <trkpt lat="43.91919" lon="5.22744">
        <ele>216.91</ele>
        <time>2017-04-24T08:25:32Z</time>
      </trkpt>
      <trkpt lat="43.9192" lon="5.22747">
        <ele>216.91</ele>
        <time>2017-04-24T08:26:00Z</time>
      </trkpt>
      <trkpt lat="43.91921" lon="5.22748">
        <ele>216.91</ele>
        <time>2017-04-24T08:26:31Z</time>
      </trkpt>
      <trkpt lat="43.91918" lon="5.22747">
        <ele>217.4</ele>
        <time>2017-04-24T08:27:04Z</time>
      </trkpt>
      <trkpt lat="43.91917" lon="5.22748">
        <ele>217.4</ele>
        <time>2017-04-24T08:27:38Z</time>
      </trkpt>
      <trkpt lat="43.91919" lon="5.22748">
        <ele>217.4</ele>
        <time>2017-04-24T08:28:07Z</time>
      </trkpt>
      <trkpt lat="43.9192" lon="5.22749">
        <ele>217.88</ele>
        <time>2017-04-24T08:28:38Z</time>
      </trkpt>
      <trkpt lat="43.91915" lon="5.22749">
        <ele>217.88</ele>
        <time>2017-04-24T08:29:04Z</time>
      </trkpt>
      <trkpt lat="43.91917" lon="5.22745">
        <ele>218.36</ele>
        <time>2017-04-24T08:29:35Z</time>
      </trkpt>
      <trkpt lat="43.91916" lon="5.22753">
        <ele>218.84</ele>
        <time>2017-04-24T08:30:11Z</time>
      </trkpt>
      <trkpt lat="43.91919" lon="5.22756">
        <ele>219.32</ele>
        <time>2017-04-24T08:30:45Z</time>
      </trkpt>
      <trkpt lat="43.91919" lon="5.22756">
        <ele>219.8</ele>
        <time>2017-04-24T08:31:11Z</time>
      </trkpt>
      <trkpt lat="43.91916" lon="5.22754">
        <ele>220.28</ele>
        <time>2017-04-24T08:31:48Z</time>
      </trkpt>
      <trkpt lat="43.91918" lon="5.22756">
        <ele>220.76</ele>
        <time>2017-04-24T08:32:22Z</time>
      </trkpt>
      <trkpt lat="43.91917" lon="5.22755">
        <ele>221.24</ele>
        <time>2017-04-24T08:32:56Z</time>
      </trkpt>
      <trkpt lat="43.91917" lon="5.22752">
        <ele>221.72</ele>
        <time>2017-04-24T08:33:31Z</time>
      </trkpt>
      <trkpt lat="43.91919" lon="5.22751">
        <ele>222.2</ele>
        <time>2017-04-24T08:34:08Z</time>
      </trkpt>
      <trkpt lat="43.91916" lon="5.22754">
        <ele>222.68</ele>
        <time>2017-04-24T08:34:44Z</time>
      </trkpt>
      <trkpt lat="43.91916" lon="5.22756">
        <ele>222.68</ele>
        <time>2017-04-24T08:35:09Z</time>
      </trkpt>
      <trkpt lat="43.91911" lon="5.22756">
        <ele>223.16</ele>
        <time>2017-04-24T08:35:46Z</time>
      </trkpt>
      <trkpt lat="43.91914" lon="5.22755">
        <ele>223.64</ele>
        <time>2017-04-24T08:36:16Z</time>
      </trkpt>
      <trkpt lat="43.91918" lon="5.22759">
        <ele>224.12</ele>
        <time>2017-04-24T08:36:49Z</time>
      </trkpt>
      <trkpt lat="43.91917" lon="5.22764">
        <ele>224.61</ele>
        <time>2017-04-24T08:37:29Z</time>
      </trkpt>
      <trkpt lat="43.91919" lon="5.22758">
        <ele>225.57</ele>
        <time>2017-04-24T08:38:06Z</time>
      </trkpt>
      <trkpt lat="43.9192" lon="5.22756">
        <ele>226.05</ele>
        <time>2017-04-24T08:38:41Z</time>
      </trkpt>
      <trkpt lat="43.91919" lon="5.22757">
        <ele>226.05</ele>
        <time>2017-04-24T08:39:14Z</time>
      </trkpt>
      <trkpt lat="43.91916" lon="5.22753">
        <ele>226.53</ele>
        <time>2017-04-24T08:39:51Z</time>
      </trkpt>
      <trkpt lat="43.91914" lon="5.2275">
        <ele>227.97</ele>
        <time>2017-04-24T08:40:18Z</time>
      </trkpt>
      <trkpt lat="43.91912" lon="5.2275">
        <ele>226.53</ele>
        <time>2017-04-24T08:40:41Z</time>
      </trkpt>
      <trkpt lat="43.91914" lon="5.22753">
        <ele>228.93</ele>
        <time>2017-04-24T08:41:01Z</time>
      </trkpt>
      <trkpt lat="43.91914" lon="5.22755">
        <ele>228.93</ele>
        <time>2017-04-24T08:41:27Z</time>
      </trkpt>
      <trkpt lat="43.91918" lon="5.22754">
        <ele>229.41</ele>
        <time>2017-04-24T08:41:56Z</time>
      </trkpt>
      <trkpt lat="43.9192" lon="5.22751">
        <ele>229.89</ele>
        <time>2017-04-24T08:42:25Z</time>
      </trkpt>
      <trkpt lat="43.91921" lon="5.22747">
        <ele>232.78</ele>
        <time>2017-04-24T08:42:38Z</time>
      </trkpt>
      <trkpt lat="43.91924" lon="5.22749">
        <ele>233.74</ele>
        <time>2017-04-24T08:42:55Z</time>
      </trkpt>
      <trkpt lat="43.91925" lon="5.22745">
        <ele>233.74</ele>
        <time>2017-04-24T08:43:13Z</time>
      </trkpt>
      <trkpt lat="43.91931" lon="5.22744">
        <ele>234.22</ele>
        <time>2017-04-24T08:43:35Z</time>
      </trkpt>
      <trkpt lat="43.91935" lon="5.22748">
        <ele>234.22</ele>
        <time>2017-04-24T08:43:57Z</time>
      </trkpt>
      <trkpt lat="43.91941" lon="5.22749">
        <ele>234.7</ele>
        <time>2017-04-24T08:44:11Z</time>
      </trkpt>
      <trkpt lat="43.91948" lon="5.22745">
        <ele>236.14</ele>
        <time>2017-04-24T08:44:27Z</time>
      </trkpt>
      <trkpt lat="43.91955" lon="5.22743">
        <ele>237.1</ele>
        <time>2017-04-24T08:44:43Z</time>
      </trkpt>
      <trkpt lat="43.91958" lon="5.22743">
        <ele>239.51</ele>
        <time>2017-04-24T08:44:58Z</time>
      </trkpt>
      <trkpt lat="43.91971" lon="5.22733">
        <ele>239.99</ele>
        <time>2017-04-24T08:45:17Z</time>
      </trkpt>
      <trkpt lat="43.91981" lon="5.22731">
        <ele>239.02</ele>
        <time>2017-04-24T08:45:33Z</time>
      </trkpt>
      <trkpt lat="43.91979" lon="5.22729">
        <ele>240.47</ele>
        <time>2017-04-24T08:45:43Z</time>
      </trkpt>
      <trkpt lat="43.91972" lon="5.22732">
        <ele>242.39</ele>
        <time>2017-04-24T08:45:58Z</time>
      </trkpt>
      <trkpt lat="43.91972" lon="5.22736">
        <ele>243.35</ele>
        <time>2017-04-24T08:46:15Z</time>
      </trkpt>
      <trkpt lat="43.91972" lon="5.22741">
        <ele>244.79</ele>
        <time>2017-04-24T08:46:39Z</time>
      </trkpt>
      <trkpt lat="43.91972" lon="5.22735">
        <ele>245.27</ele>
        <time>2017-04-24T08:46:59Z</time>
      </trkpt>
      <trkpt lat="43.91973" lon="5.22732">
        <ele>246.23</ele>
        <time>2017-04-24T08:47:16Z</time>
      </trkpt>
      <trkpt lat="43.9198" lon="5.22726">
        <ele>247.68</ele>
        <time>2017-04-24T08:47:28Z</time>
      </trkpt>
      <trkpt lat="43.91986" lon="5.2272">
        <ele>247.68</ele>
        <time>2017-04-24T08:47:40Z</time>
      </trkpt>
      <trkpt lat="43.91988" lon="5.22716">
        <ele>249.6</ele>
        <time>2017-04-24T08:47:54Z</time>
      </trkpt>
      <trkpt lat="43.91996" lon="5.22711">
        <ele>250.56</ele>
        <time>2017-04-24T08:48:09Z</time>
      </trkpt>
      <trkpt lat="43.91998" lon="5.22708">
        <ele>252</ele>
        <time>2017-04-24T08:48:26Z</time>
      </trkpt>
      <trkpt lat="43.92003" lon="5.22703">
        <ele>252.48</ele>
        <time>2017-04-24T08:48:39Z</time>
      </trkpt>
      <trkpt lat="43.92009" lon="5.227">
        <ele>253.44</ele>
        <time>2017-04-24T08:48:53Z</time>
      </trkpt>
      <trkpt lat="43.92017" lon="5.22699">
        <ele>254.41</ele>
        <time>2017-04-24T08:49:09Z</time>
      </trkpt>
      <trkpt lat="43.92022" lon="5.22697">
        <ele>255.37</ele>
        <time>2017-04-24T08:49:22Z</time>
      </trkpt>
      <trkpt lat="43.92026" lon="5.22688">
        <ele>256.33</ele>
        <time>2017-04-24T08:49:36Z</time>
      </trkpt>
      <trkpt lat="43.92026" lon="5.22686">
        <ele>259.69</ele>
        <time>2017-04-24T08:49:44Z</time>
      </trkpt>
      <trkpt lat="43.92039" lon="5.22667">
        <ele>261.14</ele>
        <time>2017-04-24T08:49:58Z</time>
      </trkpt>
      <trkpt lat="43.92056" lon="5.22655">
        <ele>261.62</ele>
        <time>2017-04-24T08:50:13Z</time>
      </trkpt>
      <trkpt lat="43.92059" lon="5.22658">
        <ele>263.06</ele>
        <time>2017-04-24T08:50:28Z</time>
      </trkpt>
      <trkpt lat="43.92059" lon="5.22667">
        <ele>264.02</ele>
        <time>2017-04-24T08:50:49Z</time>
      </trkpt>
      <trkpt lat="43.92065" lon="5.2267">
        <ele>264.98</ele>
        <time>2017-04-24T08:51:10Z</time>
      </trkpt>
      <trkpt lat="43.92066" lon="5.22664">
        <ele>265.94</ele>
        <time>2017-04-24T08:51:25Z</time>
      </trkpt>
      <trkpt lat="43.92063" lon="5.22666">
        <ele>265.94</ele>
        <time>2017-04-24T08:51:38Z</time>
      </trkpt>
      <trkpt lat="43.92065" lon="5.22659">
        <ele>265.94</ele>
        <time>2017-04-24T08:51:51Z</time>
      </trkpt>
      <trkpt lat="43.92079" lon="5.22654">
        <ele>265.94</ele>
        <time>2017-04-24T08:52:15Z</time>
      </trkpt>
      <trkpt lat="43.92081" lon="5.22654">
        <ele>265.94</ele>
        <time>2017-04-24T08:52:32Z</time>
      </trkpt>
      <trkpt lat="43.92081" lon="5.22653">
        <ele>265.94</ele>
        <time>2017-04-24T08:52:57Z</time>
      </trkpt>
      <trkpt lat="43.92085" lon="5.22645">
        <ele>265.94</ele>
        <time>2017-04-24T08:53:17Z</time>
      </trkpt>
      <trkpt lat="43.92095" lon="5.22631">
        <ele>265.94</ele>
        <time>2017-04-24T08:53:32Z</time>
      </trkpt>
      <trkpt lat="43.92102" lon="5.2262">
        <ele>265.94</ele>
        <time>2017-04-24T08:53:49Z</time>
      </trkpt>
      <trkpt lat="43.92108" lon="5.22612">
        <ele>265.94</ele>
        <time>2017-04-24T08:54:00Z</time>
      </trkpt>
      <trkpt lat="43.92117" lon="5.22604">
        <ele>265.94</ele>
        <time>2017-04-24T08:54:16Z</time>
      </trkpt>
      <trkpt lat="43.92129" lon="5.22607">
        <ele>266.42</ele>
        <time>2017-04-24T08:54:32Z</time>
      </trkpt>
      <trkpt lat="43.92138" lon="5.22597">
        <ele>266.9</ele>
        <time>2017-04-24T08:54:48Z</time>
      </trkpt>
      <trkpt lat="43.92148" lon="5.22593">
        <ele>267.86</ele>
        <time>2017-04-24T08:55:04Z</time>
      </trkpt>
      <trkpt lat="43.92154" lon="5.22584">
        <ele>268.35</ele>
        <time>2017-04-24T08:55:18Z</time>
      </trkpt>
      <trkpt lat="43.9216" lon="5.22586">
        <ele>268.35</ele>
        <time>2017-04-24T08:55:41Z</time>
      </trkpt>
      <trkpt lat="43.92166" lon="5.22585">
        <ele>268.83</ele>
        <time>2017-04-24T08:55:56Z</time>
      </trkpt>
      <trkpt lat="43.9218" lon="5.22575">
        <ele>270.27</ele>
        <time>2017-04-24T08:56:16Z</time>
      </trkpt>
      <trkpt lat="43.92186" lon="5.22571">
        <ele>270.75</ele>
        <time>2017-04-24T08:56:31Z</time>
      </trkpt>
      <trkpt lat="43.92196" lon="5.22563">
        <ele>270.75</ele>
        <time>2017-04-24T08:56:44Z</time>
      </trkpt>
      <trkpt lat="43.92206" lon="5.22561">
        <ele>271.23</ele>
        <time>2017-04-24T08:56:57Z</time>
      </trkpt>
      <trkpt lat="43.92208" lon="5.2256">
        <ele>271.23</ele>
        <time>2017-04-24T08:57:10Z</time>
      </trkpt>
      <trkpt lat="43.92214" lon="5.22554">
        <ele>271.23</ele>
        <time>2017-04-24T08:57:20Z</time>
      </trkpt>
      <trkpt lat="43.9222" lon="5.22548">
        <ele>271.23</ele>
        <time>2017-04-24T08:57:34Z</time>
      </trkpt>
      <trkpt lat="43.92225" lon="5.22541">
        <ele>271.23</ele>
        <time>2017-04-24T08:57:46Z</time>
      </trkpt>
      <trkpt lat="43.92232" lon="5.22542">
        <ele>271.23</ele>
        <time>2017-04-24T08:58:01Z</time>
      </trkpt>
      <trkpt lat="43.92232" lon="5.22536">
        <ele>271.23</ele>
        <time>2017-04-24T08:58:22Z</time>
      </trkpt>
      <trkpt lat="43.92232" lon="5.2253">
        <ele>272.67</ele>
        <time>2017-04-24T08:58:36Z</time>
      </trkpt>
      <trkpt lat="43.92234" lon="5.22521">
        <ele>276.52</ele>
        <time>2017-04-24T08:58:53Z</time>
      </trkpt>
      <trkpt lat="43.9224" lon="5.22517">
        <ele>277.96</ele>
        <time>2017-04-24T08:59:07Z</time>
      </trkpt>
      <trkpt lat="43.92239" lon="5.22515">
        <ele>277.48</ele>
        <time>2017-04-24T08:59:23Z</time>
      </trkpt>
      <trkpt lat="43.92237" lon="5.22514">
        <ele>276.52</ele>
        <time>2017-04-24T08:59:41Z</time>
      </trkpt>
      <trkpt lat="43.92235" lon="5.22517">
        <ele>274.59</ele>
        <time>2017-04-24T08:59:56Z</time>
      </trkpt>
      <trkpt lat="43.92236" lon="5.2252">
        <ele>273.15</ele>
        <time>2017-04-24T09:00:04Z</time>
      </trkpt>
      <trkpt lat="43.9225" lon="5.22528">
        <ele>273.15</ele>
        <time>2017-04-24T09:00:20Z</time>
      </trkpt>
      <trkpt lat="43.9226" lon="5.22529">
        <ele>273.15</ele>
        <time>2017-04-24T09:00:40Z</time>
      </trkpt>
      <trkpt lat="43.92269" lon="5.2253">
        <ele>273.15</ele>
        <time>2017-04-24T09:00:58Z</time>
      </trkpt>
      <trkpt lat="43.9227" lon="5.2253">
        <ele>274.11</ele>
        <time>2017-04-24T09:01:00Z</time>
      </trkpt>
      <trkpt lat="43.92274" lon="5.22533">
        <ele>275.07</ele>
        <time>2017-04-24T09:01:11Z</time>
      </trkpt>
      <trkpt lat="43.92277" lon="5.22536">
        <ele>276.52</ele>
        <time>2017-04-24T09:01:16Z</time>
      </trkpt>
      <trkpt lat="43.92286" lon="5.22547">
        <ele>275.07</ele>
        <time>2017-04-24T09:01:33Z</time>
      </trkpt>
      <trkpt lat="43.92293" lon="5.2255">
        <ele>277</ele>
        <time>2017-04-24T09:01:48Z</time>
      </trkpt>
      <trkpt lat="43.92302" lon="5.22547">
        <ele>278.44</ele>
        <time>2017-04-24T09:02:04Z</time>
      </trkpt>
      <trkpt lat="43.92306" lon="5.2256">
        <ele>278.92</ele>
        <time>2017-04-24T09:02:18Z</time>
      </trkpt>
      <trkpt lat="43.92306" lon="5.22557">
        <ele>279.88</ele>
        <time>2017-04-24T09:02:35Z</time>
      </trkpt>
      <trkpt lat="43.92312" lon="5.22565">
        <ele>281.32</ele>
        <time>2017-04-24T09:02:47Z</time>
      </trkpt>
      <trkpt lat="43.92321" lon="5.22553">
        <ele>281.32</ele>
        <time>2017-04-24T09:03:00Z</time>
      </trkpt>
      <trkpt lat="43.92323" lon="5.22549">
        <ele>280.84</ele>
        <time>2017-04-24T09:03:15Z</time>
      </trkpt>
      <trkpt lat="43.92324" lon="5.22552">
        <ele>280.84</ele>
        <time>2017-04-24T09:03:38Z</time>
      </trkpt>
      <trkpt lat="43.92326" lon="5.22551">
        <ele>280.84</ele>
        <time>2017-04-24T09:04:02Z</time>
      </trkpt>
      <trkpt lat="43.92326" lon="5.22553">
        <ele>280.36</ele>
        <time>2017-04-24T09:04:20Z</time>
      </trkpt>
      <trkpt lat="43.92327" lon="5.22559">
        <ele>280.84</ele>
        <time>2017-04-24T09:04:36Z</time>
      </trkpt>
      <trkpt lat="43.92329" lon="5.22566">
        <ele>280.36</ele>
        <time>2017-04-24T09:04:54Z</time>
      </trkpt>
      <trkpt lat="43.92329" lon="5.22572">
        <ele>280.36</ele>
        <time>2017-04-24T09:05:13Z</time>
      </trkpt>
      <trkpt lat="43.92337" lon="5.22568">
        <ele>281.32</ele>
        <time>2017-04-24T09:05:25Z</time>
      </trkpt>
      <trkpt lat="43.92347" lon="5.22563">
        <ele>281.8</ele>
        <time>2017-04-24T09:05:39Z</time>
      </trkpt>
      <trkpt lat="43.92353" lon="5.22555">
        <ele>281.8</ele>
        <time>2017-04-24T09:05:51Z</time>
      </trkpt>
      <trkpt lat="43.9236" lon="5.22546">
        <ele>282.77</ele>
        <time>2017-04-24T09:06:05Z</time>
      </trkpt>
      <trkpt lat="43.92364" lon="5.22539">
        <ele>282.77</ele>
        <time>2017-04-24T09:06:18Z</time>
      </trkpt>
      <trkpt lat="43.92368" lon="5.22531">
        <ele>283.25</ele>
        <time>2017-04-24T09:06:29Z</time>
      </trkpt>
      <trkpt lat="43.92369" lon="5.22528">
        <ele>283.25</ele>
        <time>2017-04-24T09:06:32Z</time>
      </trkpt>
      <trkpt lat="43.92367" lon="5.22517">
        <ele>285.17</ele>
        <time>2017-04-24T09:06:44Z</time>
      </trkpt>
      <trkpt lat="43.92368" lon="5.22501">
        <ele>285.65</ele>
        <time>2017-04-24T09:06:59Z</time>
      </trkpt>
      <trkpt lat="43.92368" lon="5.22497">
        <ele>285.65</ele>
        <time>2017-04-24T09:07:05Z</time>
      </trkpt>
      <trkpt lat="43.92369" lon="5.22481">
        <ele>286.61</ele>
        <time>2017-04-24T09:07:19Z</time>
      </trkpt>
      <trkpt lat="43.92369" lon="5.22478">
        <ele>286.61</ele>
        <time>2017-04-24T09:07:32Z</time>
      </trkpt>
      <trkpt lat="43.92368" lon="5.22475">
        <ele>285.17</ele>
        <time>2017-04-24T09:07:39Z</time>
      </trkpt>
      <trkpt lat="43.92373" lon="5.22469">
        <ele>284.69</ele>
        <time>2017-04-24T09:07:52Z</time>
      </trkpt>
      <trkpt lat="43.92375" lon="5.2246">
        <ele>284.69</ele>
        <time>2017-04-24T09:08:03Z</time>
      </trkpt>
      <trkpt lat="43.92379" lon="5.22451">
        <ele>284.69</ele>
        <time>2017-04-24T09:08:17Z</time>
      </trkpt>
      <trkpt lat="43.92379" lon="5.22441">
        <ele>286.13</ele>
        <time>2017-04-24T09:08:29Z</time>
      </trkpt>
      <trkpt lat="43.9238" lon="5.22434">
        <ele>286.13</ele>
        <time>2017-04-24T09:08:44Z</time>
      </trkpt>
      <trkpt lat="43.9238" lon="5.22435">
        <ele>286.13</ele>
        <time>2017-04-24T09:08:52Z</time>
      </trkpt>
      <trkpt lat="43.92376" lon="5.22433">
        <ele>287.09</ele>
        <time>2017-04-24T09:09:06Z</time>
      </trkpt>
      <trkpt lat="43.92375" lon="5.2243">
        <ele>287.57</ele>
        <time>2017-04-24T09:09:20Z</time>
      </trkpt>
      <trkpt lat="43.92376" lon="5.22422">
        <ele>287.57</ele>
        <time>2017-04-24T09:09:32Z</time>
      </trkpt>
      <trkpt lat="43.92378" lon="5.22415">
        <ele>287.57</ele>
        <time>2017-04-24T09:09:44Z</time>
      </trkpt>
      <trkpt lat="43.9238" lon="5.2241">
        <ele>287.57</ele>
        <time>2017-04-24T09:09:52Z</time>
      </trkpt>
      <trkpt lat="43.9238" lon="5.22407">
        <ele>289.01</ele>
        <time>2017-04-24T09:10:03Z</time>
      </trkpt>
      <trkpt lat="43.92383" lon="5.22404">
        <ele>289.49</ele>
        <time>2017-04-24T09:10:17Z</time>
      </trkpt>
      <trkpt lat="43.92387" lon="5.22398">
        <ele>289.01</ele>
        <time>2017-04-24T09:10:42Z</time>
      </trkpt>
      <trkpt lat="43.92388" lon="5.22397">
        <ele>289.01</ele>
        <time>2017-04-24T09:10:45Z</time>
      </trkpt>
      <trkpt lat="43.9239" lon="5.22397">
        <ele>289.01</ele>
        <time>2017-04-24T09:10:55Z</time>
      </trkpt>
      <trkpt lat="43.92392" lon="5.224">
        <ele>289.01</ele>
        <time>2017-04-24T09:11:14Z</time>
      </trkpt>
      <trkpt lat="43.9239" lon="5.22399">
        <ele>289.49</ele>
        <time>2017-04-24T09:11:31Z</time>
      </trkpt>
      <trkpt lat="43.92389" lon="5.22399">
        <ele>289.49</ele>
        <time>2017-04-24T09:11:47Z</time>
      </trkpt>
      <trkpt lat="43.92389" lon="5.224">
        <ele>289.49</ele>
        <time>2017-04-24T09:12:05Z</time>
      </trkpt>
      <trkpt lat="43.92389" lon="5.22399">
        <ele>289.01</ele>
        <time>2017-04-24T09:12:25Z</time>
      </trkpt>
      <trkpt lat="43.9239" lon="5.22398">
        <ele>289.01</ele>
        <time>2017-04-24T09:12:41Z</time>
      </trkpt>
      <trkpt lat="43.9239" lon="5.224">
        <ele>289.01</ele>
        <time>2017-04-24T09:12:56Z</time>
      </trkpt>
      <trkpt lat="43.92388" lon="5.22401">
        <ele>289.01</ele>
        <time>2017-04-24T09:13:09Z</time>
      </trkpt>
      <trkpt lat="43.92389" lon="5.224">
        <ele>288.53</ele>
        <time>2017-04-24T09:13:26Z</time>
      </trkpt>
      <trkpt lat="43.92387" lon="5.22396">
        <ele>289.97</ele>
        <time>2017-04-24T09:13:41Z</time>
      </trkpt>
      <trkpt lat="43.92388" lon="5.22391">
        <ele>291.9</ele>
        <time>2017-04-24T09:13:54Z</time>
      </trkpt>
      <trkpt lat="43.92394" lon="5.2239">
        <ele>293.34</ele>
        <time>2017-04-24T09:14:10Z</time>
      </trkpt>
      <trkpt lat="43.92398" lon="5.22383">
        <ele>295.74</ele>
        <time>2017-04-24T09:14:24Z</time>
      </trkpt>
      <trkpt lat="43.92402" lon="5.22373">
        <ele>297.18</ele>
        <time>2017-04-24T09:14:40Z</time>
      </trkpt>
      <trkpt lat="43.92404" lon="5.22366">
        <ele>297.67</ele>
        <time>2017-04-24T09:14:52Z</time>
      </trkpt>
      <trkpt lat="43.92403" lon="5.22369">
        <ele>297.67</ele>
        <time>2017-04-24T09:15:10Z</time>
      </trkpt>
      <trkpt lat="43.92402" lon="5.22367">
        <ele>297.67</ele>
        <time>2017-04-24T09:15:34Z</time>
      </trkpt>
      <trkpt lat="43.92399" lon="5.22363">
        <ele>297.67</ele>
        <time>2017-04-24T09:15:57Z</time>
      </trkpt>
      <trkpt lat="43.924" lon="5.22365">
        <ele>297.18</ele>
        <time>2017-04-24T09:16:18Z</time>
      </trkpt>
      <trkpt lat="43.92401" lon="5.22366">
        <ele>296.7</ele>
        <time>2017-04-24T09:16:48Z</time>
      </trkpt>
      <trkpt lat="43.92402" lon="5.22357">
        <ele>296.7</ele>
        <time>2017-04-24T09:17:05Z</time>
      </trkpt>
      <trkpt lat="43.92401" lon="5.22349">
        <ele>296.7</ele>
        <time>2017-04-24T09:17:18Z</time>
      </trkpt>
      <trkpt lat="43.92402" lon="5.22343">
        <ele>295.26</ele>
        <time>2017-04-24T09:17:33Z</time>
      </trkpt>
      <trkpt lat="43.92404" lon="5.22338">
        <ele>293.34</ele>
        <time>2017-04-24T09:17:47Z</time>
      </trkpt>
      <trkpt lat="43.92403" lon="5.22326">
        <ele>291.9</ele>
        <time>2017-04-24T09:18:01Z</time>
      </trkpt>
      <trkpt lat="43.92404" lon="5.22322">
        <ele>291.9</ele>
        <time>2017-04-24T09:18:06Z</time>
      </trkpt>
      <trkpt lat="43.9241" lon="5.22314">
        <ele>292.86</ele>
        <time>2017-04-24T09:18:20Z</time>
      </trkpt>
      <trkpt lat="43.92411" lon="5.2231">
        <ele>291.9</ele>
        <time>2017-04-24T09:18:31Z</time>
      </trkpt>
      <trkpt lat="43.92411" lon="5.22307">
        <ele>293.34</ele>
        <time>2017-04-24T09:18:39Z</time>
      </trkpt>
      <trkpt lat="43.92411" lon="5.22306">
        <ele>294.78</ele>
        <time>2017-04-24T09:18:53Z</time>
      </trkpt>
      <trkpt lat="43.92407" lon="5.22304">
        <ele>294.78</ele>
        <time>2017-04-24T09:19:21Z</time>
      </trkpt>
      <trkpt lat="43.9241" lon="5.22301">
        <ele>294.3</ele>
        <time>2017-04-24T09:19:35Z</time>
      </trkpt>
      <trkpt lat="43.9241" lon="5.22299">
        <ele>294.3</ele>
        <time>2017-04-24T09:19:56Z</time>
      </trkpt>
      <trkpt lat="43.92414" lon="5.22302">
        <ele>294.3</ele>
        <time>2017-04-24T09:20:14Z</time>
      </trkpt>
      <trkpt lat="43.92424" lon="5.22304">
        <ele>293.82</ele>
        <time>2017-04-24T09:20:35Z</time>
      </trkpt>
      <trkpt lat="43.92423" lon="5.22303">
        <ele>293.82</ele>
        <time>2017-04-24T09:20:48Z</time>
      </trkpt>
      <trkpt lat="43.92432" lon="5.22303">
        <ele>293.82</ele>
        <time>2017-04-24T09:21:08Z</time>
      </trkpt>
      <trkpt lat="43.9244" lon="5.22306">
        <ele>293.82</ele>
        <time>2017-04-24T09:21:29Z</time>
      </trkpt>
      <trkpt lat="43.92437" lon="5.22309">
        <ele>293.34</ele>
        <time>2017-04-24T09:21:48Z</time>
      </trkpt>
      <trkpt lat="43.92438" lon="5.22305">
        <ele>295.26</ele>
        <time>2017-04-24T09:22:02Z</time>
      </trkpt>
      <trkpt lat="43.92439" lon="5.22297">
        <ele>296.7</ele>
        <time>2017-04-24T09:22:12Z</time>
      </trkpt>
      <trkpt lat="43.9244" lon="5.22294">
        <ele>297.18</ele>
        <time>2017-04-24T09:22:16Z</time>
      </trkpt>
      <trkpt lat="43.92443" lon="5.22288">
        <ele>298.15</ele>
        <time>2017-04-24T09:22:22Z</time>
      </trkpt>
      <trkpt lat="43.92443" lon="5.22283">
        <ele>299.11</ele>
        <time>2017-04-24T09:22:35Z</time>
      </trkpt>
      <trkpt lat="43.92443" lon="5.22282">
        <ele>299.11</ele>
        <time>2017-04-24T09:22:36Z</time>
      </trkpt>
      <trkpt lat="43.92447" lon="5.22269">
        <ele>300.55</ele>
        <time>2017-04-24T09:22:49Z</time>
      </trkpt>
      <trkpt lat="43.92443" lon="5.22264">
        <ele>301.03</ele>
        <time>2017-04-24T09:23:04Z</time>
      </trkpt>
      <trkpt lat="43.92445" lon="5.22257">
        <ele>301.51</ele>
        <time>2017-04-24T09:23:18Z</time>
      </trkpt>
      <trkpt lat="43.9244" lon="5.22254">
        <ele>301.51</ele>
        <time>2017-04-24T09:23:34Z</time>
      </trkpt>
      <trkpt lat="43.9244" lon="5.22251">
        <ele>300.55</ele>
        <time>2017-04-24T09:23:47Z</time>
      </trkpt>
      <trkpt lat="43.9244" lon="5.22251">
        <ele>300.55</ele>
        <time>2017-04-24T09:23:48Z</time>
      </trkpt>
      <trkpt lat="43.92441" lon="5.22249">
        <ele>300.55</ele>
        <time>2017-04-24T09:23:50Z</time>
      </trkpt>
      <trkpt lat="43.92441" lon="5.2224">
        <ele>300.55</ele>
        <time>2017-04-24T09:23:58Z</time>
      </trkpt>
      <trkpt lat="43.92425" lon="5.22236">
        <ele>299.59</ele>
        <time>2017-04-24T09:24:12Z</time>
      </trkpt>
      <trkpt lat="43.92422" lon="5.22234">
        <ele>299.11</ele>
        <time>2017-04-24T09:24:27Z</time>
      </trkpt>
      <trkpt lat="43.92422" lon="5.22231">
        <ele>298.15</ele>
        <time>2017-04-24T09:24:41Z</time>
      </trkpt>
      <trkpt lat="43.92427" lon="5.22226">
        <ele>298.15</ele>
        <time>2017-04-24T09:24:55Z</time>
      </trkpt>
      <trkpt lat="43.92433" lon="5.22224">
        <ele>299.11</ele>
        <time>2017-04-24T09:25:02Z</time>
      </trkpt>
      <trkpt lat="43.92438" lon="5.22218">
        <ele>301.51</ele>
        <time>2017-04-24T09:25:15Z</time>
      </trkpt>
      <trkpt lat="43.92445" lon="5.2221">
        <ele>302.47</ele>
        <time>2017-04-24T09:25:27Z</time>
      </trkpt>
      <trkpt lat="43.92447" lon="5.22202">
        <ele>303.91</ele>
        <time>2017-04-24T09:25:40Z</time>
      </trkpt>
      <trkpt lat="43.92452" lon="5.22201">
        <ele>305.36</ele>
        <time>2017-04-24T09:25:56Z</time>
      </trkpt>
      <trkpt lat="43.92458" lon="5.22204">
        <ele>307.28</ele>
        <time>2017-04-24T09:26:14Z</time>
      </trkpt>
      <trkpt lat="43.92464" lon="5.22208">
        <ele>308.24</ele>
        <time>2017-04-24T09:26:27Z</time>
      </trkpt>
      <trkpt lat="43.92469" lon="5.22206">
        <ele>308.72</ele>
        <time>2017-04-24T09:26:42Z</time>
      </trkpt>
      <trkpt lat="43.92467" lon="5.22207">
        <ele>310.16</ele>
        <time>2017-04-24T09:26:55Z</time>
      </trkpt>
      <trkpt lat="43.92469" lon="5.22205">
        <ele>310.64</ele>
        <time>2017-04-24T09:27:08Z</time>
      </trkpt>
      <trkpt lat="43.92472" lon="5.22203">
        <ele>310.64</ele>
        <time>2017-04-24T09:27:24Z</time>
      </trkpt>
      <trkpt lat="43.92475" lon="5.22201">
        <ele>309.2</ele>
        <time>2017-04-24T09:27:40Z</time>
      </trkpt>
      <trkpt lat="43.92477" lon="5.22202">
        <ele>308.24</ele>
        <time>2017-04-24T09:27:55Z</time>
      </trkpt>
      <trkpt lat="43.92476" lon="5.22203">
        <ele>307.76</ele>
        <time>2017-04-24T09:28:10Z</time>
      </trkpt>
      <trkpt lat="43.92476" lon="5.22204">
        <ele>307.28</ele>
        <time>2017-04-24T09:28:27Z</time>
      </trkpt>
      <trkpt lat="43.92477" lon="5.22199">
        <ele>307.28</ele>
        <time>2017-04-24T09:28:51Z</time>
      </trkpt>
      <trkpt lat="43.92478" lon="5.22198">
        <ele>306.8</ele>
        <time>2017-04-24T09:29:09Z</time>
      </trkpt>
      <trkpt lat="43.92478" lon="5.22198">
        <ele>306.8</ele>
        <time>2017-04-24T09:29:33Z</time>
      </trkpt>
      <trkpt lat="43.9248" lon="5.22202">
        <ele>306.32</ele>
        <time>2017-04-24T09:29:45Z</time>
      </trkpt>
      <trkpt lat="43.92481" lon="5.222">
        <ele>306.32</ele>
        <time>2017-04-24T09:30:01Z</time>
      </trkpt>
      <trkpt lat="43.92481" lon="5.22197">
        <ele>305.84</ele>
        <time>2017-04-24T09:30:16Z</time>
      </trkpt>
      <trkpt lat="43.92482" lon="5.22194">
        <ele>305.36</ele>
        <time>2017-04-24T09:30:44Z</time>
      </trkpt>
      <trkpt lat="43.92482" lon="5.22197">
        <ele>304.88</ele>
        <time>2017-04-24T09:31:12Z</time>
      </trkpt>
      <trkpt lat="43.9248" lon="5.222">
        <ele>304.88</ele>
        <time>2017-04-24T09:31:34Z</time>
      </trkpt>
      <trkpt lat="43.9248" lon="5.22205">
        <ele>304.39</ele>
        <time>2017-04-24T09:31:56Z</time>
      </trkpt>
      <trkpt lat="43.92482" lon="5.22206">
        <ele>304.39</ele>
        <time>2017-04-24T09:32:19Z</time>
      </trkpt>
      <trkpt lat="43.92482" lon="5.22203">
        <ele>305.36</ele>
        <time>2017-04-24T09:32:35Z</time>
      </trkpt>
      <trkpt lat="43.92485" lon="5.22201">
        <ele>307.76</ele>
        <time>2017-04-24T09:32:49Z</time>
      </trkpt>
      <trkpt lat="43.92488" lon="5.22198">
        <ele>308.72</ele>
        <time>2017-04-24T09:33:01Z</time>
      </trkpt>
      <trkpt lat="43.92491" lon="5.22195">
        <ele>309.2</ele>
        <time>2017-04-24T09:33:15Z</time>
      </trkpt>
      <trkpt lat="43.92495" lon="5.22193">
        <ele>311.12</ele>
        <time>2017-04-24T09:33:26Z</time>
      </trkpt>
      <trkpt lat="43.92501" lon="5.22192">
        <ele>312.09</ele>
        <time>2017-04-24T09:33:41Z</time>
      </trkpt>
      <trkpt lat="43.92507" lon="5.2219">
        <ele>314.97</ele>
        <time>2017-04-24T09:33:54Z</time>
      </trkpt>
      <trkpt lat="43.92514" lon="5.22191">
        <ele>316.89</ele>
        <time>2017-04-24T09:34:09Z</time>
      </trkpt>
      <trkpt lat="43.92521" lon="5.2219">
        <ele>317.85</ele>
        <time>2017-04-24T09:34:23Z</time>
      </trkpt>
      <trkpt lat="43.92531" lon="5.22183">
        <ele>317.85</ele>
        <time>2017-04-24T09:34:38Z</time>
      </trkpt>
      <trkpt lat="43.92536" lon="5.22182">
        <ele>317.85</ele>
        <time>2017-04-24T09:34:51Z</time>
      </trkpt>
      <trkpt lat="43.92538" lon="5.22183">
        <ele>316.41</ele>
        <time>2017-04-24T09:34:55Z</time>
      </trkpt>
      <trkpt lat="43.92542" lon="5.22183">
        <ele>315.93</ele>
        <time>2017-04-24T09:35:11Z</time>
      </trkpt>
      <trkpt lat="43.92548" lon="5.22185">
        <ele>315.93</ele>
        <time>2017-04-24T09:35:31Z</time>
      </trkpt>
      <trkpt lat="43.92548" lon="5.22188">
        <ele>313.53</ele>
        <time>2017-04-24T09:35:44Z</time>
      </trkpt>
      <trkpt lat="43.92546" lon="5.22189">
        <ele>313.05</ele>
        <time>2017-04-24T09:35:58Z</time>
      </trkpt>
      <trkpt lat="43.92549" lon="5.22192">
        <ele>312.09</ele>
        <time>2017-04-24T09:36:20Z</time>
      </trkpt>
      <trkpt lat="43.9255" lon="5.22189">
        <ele>311.12</ele>
        <time>2017-04-24T09:36:39Z</time>
      </trkpt>
      <trkpt lat="43.9256" lon="5.22194">
        <ele>310.16</ele>
        <time>2017-04-24T09:36:54Z</time>
      </trkpt>
      <trkpt lat="43.92568" lon="5.222">
        <ele>309.68</ele>
        <time>2017-04-24T09:37:08Z</time>
      </trkpt>
      <trkpt lat="43.92575" lon="5.22202">
        <ele>312.09</ele>
        <time>2017-04-24T09:37:22Z</time>
      </trkpt>
      <trkpt lat="43.9258" lon="5.22204">
        <ele>312.57</ele>
        <time>2017-04-24T09:37:37Z</time>
      </trkpt>
      <trkpt lat="43.92581" lon="5.22206">
        <ele>312.57</ele>
        <time>2017-04-24T09:37:51Z</time>
      </trkpt>
      <trkpt lat="43.92583" lon="5.22204">
        <ele>312.57</ele>
        <time>2017-04-24T09:38:12Z</time>
      </trkpt>
      <trkpt lat="43.92583" lon="5.22201">
        <ele>312.57</ele>
        <time>2017-04-24T09:38:37Z</time>
      </trkpt>
      <trkpt lat="43.9258" lon="5.22208">
        <ele>312.57</ele>
        <time>2017-04-24T09:39:02Z</time>
      </trkpt>
      <trkpt lat="43.92583" lon="5.22207">
        <ele>312.57</ele>
        <time>2017-04-24T09:39:25Z</time>
      </trkpt>
      <trkpt lat="43.9259" lon="5.22208">
        <ele>314.01</ele>
        <time>2017-04-24T09:39:39Z</time>
      </trkpt>
      <trkpt lat="43.92595" lon="5.22208">
        <ele>316.89</ele>
        <time>2017-04-24T09:39:51Z</time>
      </trkpt>
      <trkpt lat="43.92595" lon="5.22209">
        <ele>316.89</ele>
        <time>2017-04-24T09:39:52Z</time>
      </trkpt>
      <trkpt lat="43.92599" lon="5.22208">
        <ele>316.89</ele>
        <time>2017-04-24T09:40:09Z</time>
      </trkpt>
      <trkpt lat="43.92603" lon="5.2221">
        <ele>315.45</ele>
        <time>2017-04-24T09:40:14Z</time>
      </trkpt>
      <trkpt lat="43.92612" lon="5.22214">
        <ele>313.53</ele>
        <time>2017-04-24T09:40:26Z</time>
      </trkpt>
      <trkpt lat="43.92622" lon="5.22209">
        <ele>314.49</ele>
        <time>2017-04-24T09:40:40Z</time>
      </trkpt>
      <trkpt lat="43.92629" lon="5.22204">
        <ele>314.49</ele>
        <time>2017-04-24T09:40:52Z</time>
      </trkpt>
      <trkpt lat="43.92636" lon="5.22199">
        <ele>317.37</ele>
        <time>2017-04-24T09:41:06Z</time>
      </trkpt>
      <trkpt lat="43.9264" lon="5.22196">
        <ele>318.81</ele>
        <time>2017-04-24T09:41:19Z</time>
      </trkpt>
      <trkpt lat="43.92644" lon="5.22194">
        <ele>319.78</ele>
        <time>2017-04-24T09:41:33Z</time>
      </trkpt>
      <trkpt lat="43.92647" lon="5.22191">
        <ele>321.7</ele>
        <time>2017-04-24T09:41:47Z</time>
      </trkpt>
      <trkpt lat="43.92647" lon="5.2219">
        <ele>323.62</ele>
        <time>2017-04-24T09:42:01Z</time>
      </trkpt>
      <trkpt lat="43.9265" lon="5.22189">
        <ele>325.54</ele>
        <time>2017-04-24T09:42:13Z</time>
      </trkpt>
      <trkpt lat="43.92649" lon="5.22188">
        <ele>326.5</ele>
        <time>2017-04-24T09:42:36Z</time>
      </trkpt>
      <trkpt lat="43.92656" lon="5.22184">
        <ele>326.99</ele>
        <time>2017-04-24T09:42:47Z</time>
      </trkpt>
      <trkpt lat="43.92662" lon="5.22174">
        <ele>327.95</ele>
        <time>2017-04-24T09:43:01Z</time>
      </trkpt>
      <trkpt lat="43.92668" lon="5.22163">
        <ele>329.39</ele>
        <time>2017-04-24T09:43:15Z</time>
      </trkpt>
      <trkpt lat="43.92674" lon="5.22154">
        <ele>329.87</ele>
        <time>2017-04-24T09:43:27Z</time>
      </trkpt>
      <trkpt lat="43.9268" lon="5.22144">
        <ele>331.31</ele>
        <time>2017-04-24T09:43:42Z</time>
      </trkpt>
      <trkpt lat="43.92687" lon="5.22138">
        <ele>329.87</ele>
        <time>2017-04-24T09:43:54Z</time>
      </trkpt>
      <trkpt lat="43.9269" lon="5.22131">
        <ele>329.39</ele>
        <time>2017-04-24T09:44:09Z</time>
      </trkpt>
      <trkpt lat="43.92692" lon="5.22131">
        <ele>328.91</ele>
        <time>2017-04-24T09:44:25Z</time>
      </trkpt>
      <trkpt lat="43.92696" lon="5.22129">
        <ele>328.43</ele>
        <time>2017-04-24T09:44:40Z</time>
      </trkpt>
      <trkpt lat="43.92697" lon="5.22129">
        <ele>328.43</ele>
        <time>2017-04-24T09:44:57Z</time>
      </trkpt>
      <trkpt lat="43.92698" lon="5.22127">
        <ele>327.95</ele>
        <time>2017-04-24T09:45:23Z</time>
      </trkpt>
      <trkpt lat="43.92699" lon="5.22128">
        <ele>327.95</ele>
        <time>2017-04-24T09:45:48Z</time>
      </trkpt>
      <trkpt lat="43.92697" lon="5.22127">
        <ele>327.95</ele>
        <time>2017-04-24T09:46:06Z</time>
      </trkpt>
      <trkpt lat="43.92696" lon="5.22129">
        <ele>327.95</ele>
        <time>2017-04-24T09:46:30Z</time>
      </trkpt>
      <trkpt lat="43.92702" lon="5.22128">
        <ele>326.99</ele>
        <time>2017-04-24T09:46:43Z</time>
      </trkpt>
      <trkpt lat="43.92709" lon="5.22127">
        <ele>328.43</ele>
        <time>2017-04-24T09:46:57Z</time>
      </trkpt>
      <trkpt lat="43.92716" lon="5.22126">
        <ele>329.39</ele>
        <time>2017-04-24T09:47:09Z</time>
      </trkpt>
      <trkpt lat="43.92721" lon="5.22127">
        <ele>331.31</ele>
        <time>2017-04-24T09:47:22Z</time>
      </trkpt>
      <trkpt lat="43.92728" lon="5.22128">
        <ele>331.79</ele>
        <time>2017-04-24T09:47:34Z</time>
      </trkpt>
      <trkpt lat="43.92732" lon="5.22124">
        <ele>333.71</ele>
        <time>2017-04-24T09:47:46Z</time>
      </trkpt>
      <trkpt lat="43.92735" lon="5.22121">
        <ele>334.2</ele>
        <time>2017-04-24T09:48:00Z</time>
      </trkpt>
      <trkpt lat="43.92738" lon="5.22121">
        <ele>333.71</ele>
        <time>2017-04-24T09:48:30Z</time>
      </trkpt>
      <trkpt lat="43.92738" lon="5.22119">
        <ele>334.68</ele>
        <time>2017-04-24T09:48:46Z</time>
      </trkpt>
      <trkpt lat="43.92739" lon="5.22119">
        <ele>334.2</ele>
        <time>2017-04-24T09:49:09Z</time>
      </trkpt>
      <trkpt lat="43.9274" lon="5.22116">
        <ele>334.2</ele>
        <time>2017-04-24T09:49:29Z</time>
      </trkpt>
      <trkpt lat="43.92739" lon="5.2212">
        <ele>334.2</ele>
        <time>2017-04-24T09:49:42Z</time>
      </trkpt>
      <trkpt lat="43.9274" lon="5.22121">
        <ele>333.23</ele>
        <time>2017-04-24T09:50:06Z</time>
      </trkpt>
      <trkpt lat="43.92739" lon="5.22122">
        <ele>330.83</ele>
        <time>2017-04-24T09:50:23Z</time>
      </trkpt>
      <trkpt lat="43.92738" lon="5.22125">
        <ele>329.87</ele>
        <time>2017-04-24T09:50:37Z</time>
      </trkpt>
      <trkpt lat="43.92738" lon="5.22125">
        <ele>329.39</ele>
        <time>2017-04-24T09:50:55Z</time>
      </trkpt>
      <trkpt lat="43.92739" lon="5.22123">
        <ele>331.31</ele>
        <time>2017-04-24T09:51:07Z</time>
      </trkpt>
      <trkpt lat="43.92739" lon="5.22122">
        <ele>330.83</ele>
        <time>2017-04-24T09:51:32Z</time>
      </trkpt>
      <trkpt lat="43.92737" lon="5.22121">
        <ele>330.83</ele>
        <time>2017-04-24T09:51:47Z</time>
      </trkpt>
      <trkpt lat="43.92737" lon="5.22125">
        <ele>328.91</ele>
        <time>2017-04-24T09:51:58Z</time>
      </trkpt>
      <trkpt lat="43.92738" lon="5.22122">
        <ele>329.87</ele>
        <time>2017-04-24T09:52:07Z</time>
      </trkpt>
      <trkpt lat="43.92739" lon="5.22122">
        <ele>330.83</ele>
        <time>2017-04-24T09:52:22Z</time>
      </trkpt>
      <trkpt lat="43.92737" lon="5.22118">
        <ele>330.83</ele>
        <time>2017-04-24T09:52:53Z</time>
      </trkpt>
      <trkpt lat="43.92736" lon="5.22118">
        <ele>332.27</ele>
        <time>2017-04-24T09:53:08Z</time>
      </trkpt>
      <trkpt lat="43.92738" lon="5.22123">
        <ele>332.27</ele>
        <time>2017-04-24T09:53:29Z</time>
      </trkpt>
      <trkpt lat="43.92739" lon="5.22123">
        <ele>330.83</ele>
        <time>2017-04-24T09:53:32Z</time>
      </trkpt>
      <trkpt lat="43.92738" lon="5.22123">
        <ele>330.35</ele>
        <time>2017-04-24T09:53:54Z</time>
      </trkpt>
      <trkpt lat="43.9274" lon="5.22123">
        <ele>330.35</ele>
        <time>2017-04-24T09:54:10Z</time>
      </trkpt>
      <trkpt lat="43.9274" lon="5.22125">
        <ele>330.35</ele>
        <time>2017-04-24T09:54:29Z</time>
      </trkpt>
      <trkpt lat="43.9274" lon="5.22126">
        <ele>329.87</ele>
        <time>2017-04-24T09:54:43Z</time>
      </trkpt>
      <trkpt lat="43.9274" lon="5.22126">
        <ele>327.95</ele>
        <time>2017-04-24T09:55:01Z</time>
      </trkpt>
      <trkpt lat="43.92738" lon="5.22128">
        <ele>327.95</ele>
        <time>2017-04-24T09:55:21Z</time>
      </trkpt>
      <trkpt lat="43.92738" lon="5.22128">
        <ele>327.95</ele>
        <time>2017-04-24T09:55:48Z</time>
      </trkpt>
      <trkpt lat="43.92737" lon="5.2213">
        <ele>327.95</ele>
        <time>2017-04-24T09:56:10Z</time>
      </trkpt>
      <trkpt lat="43.92736" lon="5.22129">
        <ele>328.43</ele>
        <time>2017-04-24T09:56:29Z</time>
      </trkpt>
      <trkpt lat="43.92738" lon="5.22128">
        <ele>330.35</ele>
        <time>2017-04-24T09:56:44Z</time>
      </trkpt>
      <trkpt lat="43.92738" lon="5.22128">
        <ele>330.35</ele>
        <time>2017-04-24T09:57:01Z</time>
      </trkpt>
      <trkpt lat="43.92739" lon="5.22127">
        <ele>330.35</ele>
        <time>2017-04-24T09:57:22Z</time>
      </trkpt>
      <trkpt lat="43.92738" lon="5.22124">
        <ele>330.35</ele>
        <time>2017-04-24T09:57:43Z</time>
      </trkpt>
      <trkpt lat="43.92738" lon="5.22122">
        <ele>328.91</ele>
        <time>2017-04-24T09:58:08Z</time>
      </trkpt>
      <trkpt lat="43.92738" lon="5.2212">
        <ele>328.91</ele>
        <time>2017-04-24T09:58:21Z</time>
      </trkpt>
      <trkpt lat="43.92738" lon="5.22123">
        <ele>329.87</ele>
        <time>2017-04-24T09:58:41Z</time>
      </trkpt>
      <trkpt lat="43.92738" lon="5.22125">
        <ele>329.87</ele>
        <time>2017-04-24T09:58:56Z</time>
      </trkpt>
      <trkpt lat="43.92739" lon="5.22124">
        <ele>328.43</ele>
        <time>2017-04-24T09:59:10Z</time>
      </trkpt>
      <trkpt lat="43.92739" lon="5.22123">
        <ele>329.87</ele>
        <time>2017-04-24T09:59:27Z</time>
      </trkpt>
      <trkpt lat="43.9274" lon="5.22126">
        <ele>329.87</ele>
        <time>2017-04-24T09:59:41Z</time>
      </trkpt>
      <trkpt lat="43.92739" lon="5.22128">
        <ele>327.95</ele>
        <time>2017-04-24T09:59:49Z</time>
      </trkpt>
      <trkpt lat="43.92739" lon="5.2213">
        <ele>326.02</ele>
        <time>2017-04-24T10:00:05Z</time>
      </trkpt>
      <trkpt lat="43.92737" lon="5.22132">
        <ele>323.62</ele>
        <time>2017-04-24T10:00:20Z</time>
      </trkpt>
      <trkpt lat="43.92738" lon="5.22135">
        <ele>322.18</ele>
        <time>2017-04-24T10:00:34Z</time>
      </trkpt>
      <trkpt lat="43.92737" lon="5.22136">
        <ele>319.78</ele>
        <time>2017-04-24T10:00:50Z</time>
      </trkpt>
      <trkpt lat="43.92736" lon="5.22139">
        <ele>318.81</ele>
        <time>2017-04-24T10:01:01Z</time>
      </trkpt>
      <trkpt lat="43.92735" lon="5.2214">
        <ele>317.37</ele>
        <time>2017-04-24T10:01:13Z</time>
      </trkpt>
      <trkpt lat="43.92736" lon="5.22145">
        <ele>315.45</ele>
        <time>2017-04-24T10:01:25Z</time>
      </trkpt>
      <trkpt lat="43.92735" lon="5.2215">
        <ele>313.05</ele>
        <time>2017-04-24T10:01:38Z</time>
      </trkpt>
      <trkpt lat="43.92731" lon="5.22153">
        <ele>311.6</ele>
        <time>2017-04-24T10:01:53Z</time>
      </trkpt>
      <trkpt lat="43.92728" lon="5.22159">
        <ele>309.68</ele>
        <time>2017-04-24T10:02:13Z</time>
      </trkpt>
      <trkpt lat="43.92731" lon="5.22163">
        <ele>308.72</ele>
        <time>2017-04-24T10:02:27Z</time>
      </trkpt>
      <trkpt lat="43.92731" lon="5.22167">
        <ele>308.72</ele>
        <time>2017-04-24T10:02:39Z</time>
      </trkpt>
      <trkpt lat="43.9273" lon="5.22179">
        <ele>307.76</ele>
        <time>2017-04-24T10:02:55Z</time>
      </trkpt>
      <trkpt lat="43.9273" lon="5.22184">
        <ele>308.24</ele>
        <time>2017-04-24T10:03:08Z</time>
      </trkpt>
      <trkpt lat="43.92729" lon="5.22189">
        <ele>309.2</ele>
        <time>2017-04-24T10:03:21Z</time>
      </trkpt>
      <trkpt lat="43.92729" lon="5.22198">
        <ele>311.12</ele>
        <time>2017-04-24T10:03:34Z</time>
      </trkpt>
      <trkpt lat="43.92734" lon="5.22198">
        <ele>309.68</ele>
        <time>2017-04-24T10:03:45Z</time>
      </trkpt>
      <trkpt lat="43.92742" lon="5.22199">
        <ele>309.2</ele>
        <time>2017-04-24T10:04:03Z</time>
      </trkpt>
      <trkpt lat="43.92744" lon="5.22201">
        <ele>309.2</ele>
        <time>2017-04-24T10:04:14Z</time>
      </trkpt>
      <trkpt lat="43.92747" lon="5.2221">
        <ele>309.2</ele>
        <time>2017-04-24T10:04:25Z</time>
      </trkpt>
      <trkpt lat="43.92746" lon="5.22214">
        <ele>309.2</ele>
        <time>2017-04-24T10:04:36Z</time>
      </trkpt>
      <trkpt lat="43.92747" lon="5.22214">
        <ele>309.2</ele>
        <time>2017-04-24T10:04:45Z</time>
      </trkpt>
      <trkpt lat="43.92745" lon="5.22215">
        <ele>310.64</ele>
        <time>2017-04-24T10:04:48Z</time>
      </trkpt>
      <trkpt lat="43.92747" lon="5.22219">
        <ele>311.12</ele>
        <time>2017-04-24T10:05:00Z</time>
      </trkpt>
      <trkpt lat="43.92744" lon="5.2222">
        <ele>311.6</ele>
        <time>2017-04-24T10:05:12Z</time>
      </trkpt>
      <trkpt lat="43.92744" lon="5.22223">
        <ele>312.57</ele>
        <time>2017-04-24T10:05:26Z</time>
      </trkpt>
      <trkpt lat="43.92747" lon="5.22224">
        <ele>312.57</ele>
        <time>2017-04-24T10:05:38Z</time>
      </trkpt>
      <trkpt lat="43.92751" lon="5.22228">
        <ele>312.57</ele>
        <time>2017-04-24T10:05:53Z</time>
      </trkpt>
      <trkpt lat="43.92759" lon="5.22232">
        <ele>313.53</ele>
        <time>2017-04-24T10:06:07Z</time>
      </trkpt>
      <trkpt lat="43.9276" lon="5.22231">
        <ele>313.53</ele>
        <time>2017-04-24T10:06:29Z</time>
      </trkpt>
      <trkpt lat="43.92763" lon="5.22236">
        <ele>313.53</ele>
        <time>2017-04-24T10:06:45Z</time>
      </trkpt>
      <trkpt lat="43.92774" lon="5.22239">
        <ele>314.49</ele>
        <time>2017-04-24T10:07:01Z</time>
      </trkpt>
      <trkpt lat="43.9278" lon="5.22239">
        <ele>314.49</ele>
        <time>2017-04-24T10:07:15Z</time>
      </trkpt>
      <trkpt lat="43.92786" lon="5.22241">
        <ele>314.49</ele>
        <time>2017-04-24T10:07:26Z</time>
      </trkpt>
      <trkpt lat="43.92791" lon="5.22244">
        <ele>314.49</ele>
        <time>2017-04-24T10:07:30Z</time>
      </trkpt>
      <trkpt lat="43.92803" lon="5.22246">
        <ele>314.97</ele>
        <time>2017-04-24T10:07:43Z</time>
      </trkpt>
      <trkpt lat="43.92811" lon="5.22245">
        <ele>315.93</ele>
        <time>2017-04-24T10:07:54Z</time>
      </trkpt>
      <trkpt lat="43.92818" lon="5.22248">
        <ele>315.93</ele>
        <time>2017-04-24T10:08:07Z</time>
      </trkpt>
      <trkpt lat="43.92824" lon="5.22252">
        <ele>316.41</ele>
        <time>2017-04-24T10:08:21Z</time>
      </trkpt>
      <trkpt lat="43.92836" lon="5.22258">
        <ele>316.89</ele>
        <time>2017-04-24T10:08:36Z</time>
      </trkpt>
      <trkpt lat="43.92845" lon="5.22263">
        <ele>317.85</ele>
        <time>2017-04-24T10:08:48Z</time>
      </trkpt>
      <trkpt lat="43.92852" lon="5.22257">
        <ele>319.3</ele>
        <time>2017-04-24T10:09:00Z</time>
      </trkpt>
      <trkpt lat="43.92857" lon="5.22259">
        <ele>320.74</ele>
        <time>2017-04-24T10:09:12Z</time>
      </trkpt>
      <trkpt lat="43.92862" lon="5.22257">
        <ele>320.74</ele>
        <time>2017-04-24T10:09:27Z</time>
      </trkpt>
      <trkpt lat="43.92866" lon="5.22245">
        <ele>322.18</ele>
        <time>2017-04-24T10:09:41Z</time>
      </trkpt>
      <trkpt lat="43.92873" lon="5.22232">
        <ele>322.18</ele>
        <time>2017-04-24T10:09:57Z</time>
      </trkpt>
      <trkpt lat="43.92881" lon="5.22223">
        <ele>324.1</ele>
        <time>2017-04-24T10:10:12Z</time>
      </trkpt>
      <trkpt lat="43.9289" lon="5.22214">
        <ele>325.06</ele>
        <time>2017-04-24T10:10:27Z</time>
      </trkpt>
      <trkpt lat="43.92892" lon="5.22213">
        <ele>325.06</ele>
        <time>2017-04-24T10:10:30Z</time>
      </trkpt>
      <trkpt lat="43.92899" lon="5.22206">
        <ele>325.06</ele>
        <time>2017-04-24T10:10:43Z</time>
      </trkpt>
      <trkpt lat="43.92903" lon="5.22205">
        <ele>325.06</ele>
        <time>2017-04-24T10:10:58Z</time>
      </trkpt>
      <trkpt lat="43.92904" lon="5.222">
        <ele>325.06</ele>
        <time>2017-04-24T10:11:05Z</time>
      </trkpt>
      <trkpt lat="43.92905" lon="5.22195">
        <ele>325.54</ele>
        <time>2017-04-24T10:11:09Z</time>
      </trkpt>
      <trkpt lat="43.92906" lon="5.22188">
        <ele>325.54</ele>
        <time>2017-04-24T10:11:21Z</time>
      </trkpt>
      <trkpt lat="43.92904" lon="5.22183">
        <ele>325.54</ele>
        <time>2017-04-24T10:11:42Z</time>
      </trkpt>
      <trkpt lat="43.92915" lon="5.22182">
        <ele>327.47</ele>
        <time>2017-04-24T10:11:55Z</time>
      </trkpt>
      <trkpt lat="43.92924" lon="5.22183">
        <ele>327.47</ele>
        <time>2017-04-24T10:12:06Z</time>
      </trkpt>
      <trkpt lat="43.92934" lon="5.22185">
        <ele>328.43</ele>
        <time>2017-04-24T10:12:18Z</time>
      </trkpt>
      <trkpt lat="43.9295" lon="5.22187">
        <ele>329.39</ele>
        <time>2017-04-24T10:12:33Z</time>
      </trkpt>
      <trkpt lat="43.92961" lon="5.22194">
        <ele>330.35</ele>
        <time>2017-04-24T10:12:47Z</time>
      </trkpt>
      <trkpt lat="43.92971" lon="5.22205">
        <ele>330.35</ele>
        <time>2017-04-24T10:13:01Z</time>
      </trkpt>
      <trkpt lat="43.92979" lon="5.22211">
        <ele>330.83</ele>
        <time>2017-04-24T10:13:14Z</time>
      </trkpt>
      <trkpt lat="43.92987" lon="5.22221">
        <ele>331.31</ele>
        <time>2017-04-24T10:13:29Z</time>
      </trkpt>
      <trkpt lat="43.92995" lon="5.2223">
        <ele>331.79</ele>
        <time>2017-04-24T10:13:41Z</time>
      </trkpt>
      <trkpt lat="43.93005" lon="5.22237">
        <ele>332.75</ele>
        <time>2017-04-24T10:13:53Z</time>
      </trkpt>
      <trkpt lat="43.9301" lon="5.22241">
        <ele>333.23</ele>
        <time>2017-04-24T10:14:01Z</time>
      </trkpt>
      <trkpt lat="43.93022" lon="5.22247">
        <ele>334.2</ele>
        <time>2017-04-24T10:14:15Z</time>
      </trkpt>
      <trkpt lat="43.93033" lon="5.22248">
        <ele>335.16</ele>
        <time>2017-04-24T10:14:27Z</time>
      </trkpt>
      <trkpt lat="43.93047" lon="5.22246">
        <ele>336.6</ele>
        <time>2017-04-24T10:14:42Z</time>
      </trkpt>
      <trkpt lat="43.93059" lon="5.22248">
        <ele>337.08</ele>
        <time>2017-04-24T10:14:55Z</time>
      </trkpt>
      <trkpt lat="43.93065" lon="5.22249">
        <ele>337.56</ele>
        <time>2017-04-24T10:15:01Z</time>
      </trkpt>
      <trkpt lat="43.93073" lon="5.22252">
        <ele>338.04</ele>
        <time>2017-04-24T10:15:10Z</time>
      </trkpt>
      <trkpt lat="43.93081" lon="5.22252">
        <ele>338.52</ele>
        <time>2017-04-24T10:15:19Z</time>
      </trkpt>
      <trkpt lat="43.93091" lon="5.22251">
        <ele>339</ele>
        <time>2017-04-24T10:15:32Z</time>
      </trkpt>
      <trkpt lat="43.93101" lon="5.22242">
        <ele>339.96</ele>
        <time>2017-04-24T10:15:48Z</time>
      </trkpt>
      <trkpt lat="43.93104" lon="5.22232">
        <ele>340.92</ele>
        <time>2017-04-24T10:16:01Z</time>
      </trkpt>
      <trkpt lat="43.93107" lon="5.2223">
        <ele>341.41</ele>
        <time>2017-04-24T10:16:15Z</time>
      </trkpt>
      <trkpt lat="43.93109" lon="5.22228">
        <ele>341.41</ele>
        <time>2017-04-24T10:16:32Z</time>
      </trkpt>
      <trkpt lat="43.93113" lon="5.22226">
        <ele>341.41</ele>
        <time>2017-04-24T10:16:49Z</time>
      </trkpt>
      <trkpt lat="43.93113" lon="5.22227">
        <ele>339.96</ele>
        <time>2017-04-24T10:16:56Z</time>
      </trkpt>
      <trkpt lat="43.93117" lon="5.22235">
        <ele>339.96</ele>
        <time>2017-04-24T10:17:23Z</time>
      </trkpt>
      <trkpt lat="43.93114" lon="5.22233">
        <ele>339.96</ele>
        <time>2017-04-24T10:17:51Z</time>
      </trkpt>
      <trkpt lat="43.93113" lon="5.2223">
        <ele>339.96</ele>
        <time>2017-04-24T10:18:20Z</time>
      </trkpt>
      <trkpt lat="43.93117" lon="5.22228">
        <ele>340.44</ele>
        <time>2017-04-24T10:18:48Z</time>
      </trkpt>
      <trkpt lat="43.93116" lon="5.2223">
        <ele>340.44</ele>
        <time>2017-04-24T10:19:13Z</time>
      </trkpt>
      <trkpt lat="43.93119" lon="5.22232">
        <ele>340.44</ele>
        <time>2017-04-24T10:19:41Z</time>
      </trkpt>
      <trkpt lat="43.93115" lon="5.22225">
        <ele>341.41</ele>
        <time>2017-04-24T10:20:10Z</time>
      </trkpt>
      <trkpt lat="43.93113" lon="5.22225">
        <ele>341.41</ele>
        <time>2017-04-24T10:20:37Z</time>
      </trkpt>
      <trkpt lat="43.93111" lon="5.22225">
        <ele>342.85</ele>
        <time>2017-04-24T10:20:57Z</time>
      </trkpt>
      <trkpt lat="43.93113" lon="5.22229">
        <ele>342.85</ele>
        <time>2017-04-24T10:21:15Z</time>
      </trkpt>
      <trkpt lat="43.93115" lon="5.22232">
        <ele>342.85</ele>
        <time>2017-04-24T10:21:42Z</time>
      </trkpt>
      <trkpt lat="43.93111" lon="5.22233">
        <ele>340.92</ele>
        <time>2017-04-24T10:22:07Z</time>
      </trkpt>
      <trkpt lat="43.93111" lon="5.22232">
        <ele>340.92</ele>
        <time>2017-04-24T10:22:23Z</time>
      </trkpt>
      <trkpt lat="43.93111" lon="5.22229">
        <ele>340.92</ele>
        <time>2017-04-24T10:22:44Z</time>
      </trkpt>
      <trkpt lat="43.93112" lon="5.22231">
        <ele>340.92</ele>
        <time>2017-04-24T10:23:09Z</time>
      </trkpt>
      <trkpt lat="43.93114" lon="5.22235">
        <ele>340.92</ele>
        <time>2017-04-24T10:23:32Z</time>
      </trkpt>
      <trkpt lat="43.93113" lon="5.22236">
        <ele>340.92</ele>
        <time>2017-04-24T10:23:56Z</time>
      </trkpt>
      <trkpt lat="43.93112" lon="5.22232">
        <ele>340.92</ele>
        <time>2017-04-24T10:24:13Z</time>
      </trkpt>
      <trkpt lat="43.93112" lon="5.22231">
        <ele>340.92</ele>
        <time>2017-04-24T10:24:40Z</time>
      </trkpt>
      <trkpt lat="43.93115" lon="5.22231">
        <ele>340.92</ele>
        <time>2017-04-24T10:25:08Z</time>
      </trkpt>
      <trkpt lat="43.93115" lon="5.22232">
        <ele>340.44</ele>
        <time>2017-04-24T10:25:42Z</time>
      </trkpt>
      <trkpt lat="43.93112" lon="5.22232">
        <ele>340.44</ele>
        <time>2017-04-24T10:26:09Z</time>
      </trkpt>
      <trkpt lat="43.93112" lon="5.22232">
        <ele>340.44</ele>
        <time>2017-04-24T10:26:42Z</time>
      </trkpt>
      <trkpt lat="43.93112" lon="5.22229">
        <ele>340.44</ele>
        <time>2017-04-24T10:27:06Z</time>
      </trkpt>
      <trkpt lat="43.93114" lon="5.2223">
        <ele>340.44</ele>
        <time>2017-04-24T10:27:37Z</time>
      </trkpt>
      <trkpt lat="43.93114" lon="5.22232">
        <ele>340.44</ele>
        <time>2017-04-24T10:28:05Z</time>
      </trkpt>
      <trkpt lat="43.93112" lon="5.22233">
        <ele>340.44</ele>
        <time>2017-04-24T10:28:32Z</time>
      </trkpt>
      <trkpt lat="43.93115" lon="5.22232">
        <ele>340.44</ele>
        <time>2017-04-24T10:28:58Z</time>
      </trkpt>
      <trkpt lat="43.93113" lon="5.22236">
        <ele>340.44</ele>
        <time>2017-04-24T10:29:28Z</time>
      </trkpt>
      <trkpt lat="43.93113" lon="5.22234">
        <ele>340.44</ele>
        <time>2017-04-24T10:29:52Z</time>
      </trkpt>
      <trkpt lat="43.93115" lon="5.22238">
        <ele>340.44</ele>
        <time>2017-04-24T10:30:15Z</time>
      </trkpt>
      <trkpt lat="43.93112" lon="5.22234">
        <ele>340.44</ele>
        <time>2017-04-24T10:30:42Z</time>
      </trkpt>
      <trkpt lat="43.9311" lon="5.22231">
        <ele>340.44</ele>
        <time>2017-04-24T10:31:11Z</time>
      </trkpt>
      <trkpt lat="43.93112" lon="5.22235">
        <ele>340.44</ele>
        <time>2017-04-24T10:31:36Z</time>
      </trkpt>
      <trkpt lat="43.93116" lon="5.22235">
        <ele>340.44</ele>
        <time>2017-04-24T10:32:05Z</time>
      </trkpt>
      <trkpt lat="43.93111" lon="5.22237">
        <ele>340.92</ele>
        <time>2017-04-24T10:32:31Z</time>
      </trkpt>
      <trkpt lat="43.9311" lon="5.22235">
        <ele>340.92</ele>
        <time>2017-04-24T10:33:00Z</time>
      </trkpt>
      <trkpt lat="43.93109" lon="5.22232">
        <ele>340.92</ele>
        <time>2017-04-24T10:33:33Z</time>
      </trkpt>
      <trkpt lat="43.93111" lon="5.22233">
        <ele>341.89</ele>
        <time>2017-04-24T10:33:37Z</time>
      </trkpt>
      <trkpt lat="43.93108" lon="5.22232">
        <ele>341.89</ele>
        <time>2017-04-24T10:33:57Z</time>
      </trkpt>
      <trkpt lat="43.93107" lon="5.22233">
        <ele>341.89</ele>
        <time>2017-04-24T10:34:23Z</time>
      </trkpt>
      <trkpt lat="43.93111" lon="5.22234">
        <ele>342.37</ele>
        <time>2017-04-24T10:34:37Z</time>
      </trkpt>
      <trkpt lat="43.93113" lon="5.22233">
        <ele>342.37</ele>
        <time>2017-04-24T10:35:07Z</time>
      </trkpt>
      <trkpt lat="43.93112" lon="5.22231">
        <ele>342.37</ele>
        <time>2017-04-24T10:35:32Z</time>
      </trkpt>
      <trkpt lat="43.93112" lon="5.2223">
        <ele>341.41</ele>
        <time>2017-04-24T10:35:58Z</time>
      </trkpt>
      <trkpt lat="43.93112" lon="5.22232">
        <ele>341.41</ele>
        <time>2017-04-24T10:36:26Z</time>
      </trkpt>
      <trkpt lat="43.93112" lon="5.22229">
        <ele>341.41</ele>
        <time>2017-04-24T10:36:46Z</time>
      </trkpt>
      <trkpt lat="43.93113" lon="5.22228">
        <ele>341.41</ele>
        <time>2017-04-24T10:37:10Z</time>
      </trkpt>
      <trkpt lat="43.93118" lon="5.22237">
        <ele>341.89</ele>
        <time>2017-04-24T10:37:44Z</time>
      </trkpt>
      <trkpt lat="43.93113" lon="5.22237">
        <ele>342.37</ele>
        <time>2017-04-24T10:38:11Z</time>
      </trkpt>
      <trkpt lat="43.93115" lon="5.2224">
        <ele>342.37</ele>
        <time>2017-04-24T10:38:37Z</time>
      </trkpt>
      <trkpt lat="43.93112" lon="5.22233">
        <ele>342.85</ele>
        <time>2017-04-24T10:39:04Z</time>
      </trkpt>
      <trkpt lat="43.9311" lon="5.22231">
        <ele>343.33</ele>
        <time>2017-04-24T10:39:38Z</time>
      </trkpt>
      <trkpt lat="43.93111" lon="5.2223">
        <ele>343.33</ele>
        <time>2017-04-24T10:40:08Z</time>
      </trkpt>
      <trkpt lat="43.93115" lon="5.22233">
        <ele>343.33</ele>
        <time>2017-04-24T10:40:32Z</time>
      </trkpt>
      <trkpt lat="43.93113" lon="5.22231">
        <ele>343.81</ele>
        <time>2017-04-24T10:41:04Z</time>
      </trkpt>
      <trkpt lat="43.93115" lon="5.22234">
        <ele>343.81</ele>
        <time>2017-04-24T10:41:33Z</time>
      </trkpt>
      <trkpt lat="43.93112" lon="5.22236">
        <ele>343.81</ele>
        <time>2017-04-24T10:41:55Z</time>
      </trkpt>
      <trkpt lat="43.93112" lon="5.22237">
        <ele>345.73</ele>
        <time>2017-04-24T10:42:03Z</time>
      </trkpt>
      <trkpt lat="43.93111" lon="5.22237">
        <ele>344.77</ele>
        <time>2017-04-24T10:42:28Z</time>
      </trkpt>
      <trkpt lat="43.93113" lon="5.22237">
        <ele>344.29</ele>
        <time>2017-04-24T10:42:59Z</time>
      </trkpt>
      <trkpt lat="43.93113" lon="5.22238">
        <ele>344.29</ele>
        <time>2017-04-24T10:43:28Z</time>
      </trkpt>
      <trkpt lat="43.93111" lon="5.22233">
        <ele>344.29</ele>
        <time>2017-04-24T10:43:57Z</time>
      </trkpt>
      <trkpt lat="43.9311" lon="5.22232">
        <ele>344.77</ele>
        <time>2017-04-24T10:44:29Z</time>
      </trkpt>
      <trkpt lat="43.93112" lon="5.22235">
        <ele>344.77</ele>
        <time>2017-04-24T10:45:07Z</time>
      </trkpt>
      <trkpt lat="43.9311" lon="5.22231">
        <ele>344.29</ele>
        <time>2017-04-24T10:45:39Z</time>
      </trkpt>
      <trkpt lat="43.93112" lon="5.22233">
        <ele>344.29</ele>
        <time>2017-04-24T10:46:06Z</time>
      </trkpt>
      <trkpt lat="43.93107" lon="5.22229">
        <ele>344.29</ele>
        <time>2017-04-24T10:46:37Z</time>
      </trkpt>
      <trkpt lat="43.93108" lon="5.22232">
        <ele>344.29</ele>
        <time>2017-04-24T10:47:12Z</time>
      </trkpt>
      <trkpt lat="43.9311" lon="5.22234">
        <ele>344.29</ele>
        <time>2017-04-24T10:47:48Z</time>
      </trkpt>
      <trkpt lat="43.93112" lon="5.2223">
        <ele>345.25</ele>
        <time>2017-04-24T10:48:21Z</time>
      </trkpt>
      <trkpt lat="43.93111" lon="5.2223">
        <ele>345.25</ele>
        <time>2017-04-24T10:48:52Z</time>
      </trkpt>
      <trkpt lat="43.93112" lon="5.22233">
        <ele>344.77</ele>
        <time>2017-04-24T10:49:22Z</time>
      </trkpt>
      <trkpt lat="43.93114" lon="5.22232">
        <ele>344.77</ele>
        <time>2017-04-24T10:49:50Z</time>
      </trkpt>
      <trkpt lat="43.93112" lon="5.22231">
        <ele>344.77</ele>
        <time>2017-04-24T10:50:26Z</time>
      </trkpt>
      <trkpt lat="43.93114" lon="5.22232">
        <ele>344.29</ele>
        <time>2017-04-24T10:50:50Z</time>
      </trkpt>
      <trkpt lat="43.93115" lon="5.22233">
        <ele>344.29</ele>
        <time>2017-04-24T10:51:07Z</time>
      </trkpt>
      <trkpt lat="43.93114" lon="5.22232">
        <ele>344.77</ele>
        <time>2017-04-24T10:51:30Z</time>
      </trkpt>
      <trkpt lat="43.93115" lon="5.22233">
        <ele>344.29</ele>
        <time>2017-04-24T10:51:54Z</time>
      </trkpt>
      <trkpt lat="43.93116" lon="5.22231">
        <ele>344.29</ele>
        <time>2017-04-24T10:52:21Z</time>
      </trkpt>
      <trkpt lat="43.93112" lon="5.22225">
        <ele>343.81</ele>
        <time>2017-04-24T10:52:52Z</time>
      </trkpt>
      <trkpt lat="43.9311" lon="5.2223">
        <ele>343.81</ele>
        <time>2017-04-24T10:53:23Z</time>
      </trkpt>
      <trkpt lat="43.93111" lon="5.22231">
        <ele>343.81</ele>
        <time>2017-04-24T10:53:55Z</time>
      </trkpt>
      <trkpt lat="43.93111" lon="5.22228">
        <ele>343.81</ele>
        <time>2017-04-24T10:54:19Z</time>
      </trkpt>
      <trkpt lat="43.9311" lon="5.22228">
        <ele>343.33</ele>
        <time>2017-04-24T10:54:50Z</time>
      </trkpt>
      <trkpt lat="43.9311" lon="5.22229">
        <ele>343.33</ele>
        <time>2017-04-24T10:55:17Z</time>
      </trkpt>
      <trkpt lat="43.93111" lon="5.22232">
        <ele>343.33</ele>
        <time>2017-04-24T10:55:40Z</time>
      </trkpt>
      <trkpt lat="43.93111" lon="5.2223">
        <ele>343.33</ele>
        <time>2017-04-24T10:56:08Z</time>
      </trkpt>
      <trkpt lat="43.93112" lon="5.22232">
        <ele>342.85</ele>
        <time>2017-04-24T10:56:27Z</time>
      </trkpt>
      <trkpt lat="43.93113" lon="5.22233">
        <ele>342.85</ele>
        <time>2017-04-24T10:56:58Z</time>
      </trkpt>
      <trkpt lat="43.93111" lon="5.2223">
        <ele>342.85</ele>
        <time>2017-04-24T10:57:25Z</time>
      </trkpt>
      <trkpt lat="43.93111" lon="5.22229">
        <ele>342.85</ele>
        <time>2017-04-24T10:57:53Z</time>
      </trkpt>
      <trkpt lat="43.93112" lon="5.22231">
        <ele>342.85</ele>
        <time>2017-04-24T10:58:10Z</time>
      </trkpt>
      <trkpt lat="43.93113" lon="5.22236">
        <ele>342.37</ele>
        <time>2017-04-24T10:58:37Z</time>
      </trkpt>
      <trkpt lat="43.9311" lon="5.2223">
        <ele>342.37</ele>
        <time>2017-04-24T10:59:07Z</time>
      </trkpt>
      <trkpt lat="43.93112" lon="5.22232">
        <ele>342.37</ele>
        <time>2017-04-24T10:59:22Z</time>
      </trkpt>
      <trkpt lat="43.93112" lon="5.22233">
        <ele>342.37</ele>
        <time>2017-04-24T10:59:48Z</time>
      </trkpt>
      <trkpt lat="43.93112" lon="5.22232">
        <ele>342.37</ele>
        <time>2017-04-24T11:00:12Z</time>
      </trkpt>
      <trkpt lat="43.9311" lon="5.22231">
        <ele>341.41</ele>
        <time>2017-04-24T11:00:32Z</time>
      </trkpt>
      <trkpt lat="43.93109" lon="5.22232">
        <ele>342.85</ele>
        <time>2017-04-24T11:00:45Z</time>
      </trkpt>
      <trkpt lat="43.93108" lon="5.22232">
        <ele>342.37</ele>
        <time>2017-04-24T11:00:58Z</time>
      </trkpt>
      <trkpt lat="43.93109" lon="5.22233">
        <ele>342.85</ele>
        <time>2017-04-24T11:01:12Z</time>
      </trkpt>
      <trkpt lat="43.93109" lon="5.22232">
        <ele>342.85</ele>
        <time>2017-04-24T11:01:31Z</time>
      </trkpt>
      <trkpt lat="43.93109" lon="5.22232">
        <ele>342.85</ele>
        <time>2017-04-24T11:01:43Z</time>
      </trkpt>
      <trkpt lat="43.9311" lon="5.22234">
        <ele>342.85</ele>
        <time>2017-04-24T11:02:02Z</time>
      </trkpt>
      <trkpt lat="43.93108" lon="5.22231">
        <ele>342.85</ele>
        <time>2017-04-24T11:02:14Z</time>
      </trkpt>
      <trkpt lat="43.93105" lon="5.22222">
        <ele>342.85</ele>
        <time>2017-04-24T11:02:26Z</time>
      </trkpt>
      <trkpt lat="43.93101" lon="5.22212">
        <ele>342.85</ele>
        <time>2017-04-24T11:02:36Z</time>
      </trkpt>
      <trkpt lat="43.93101" lon="5.22211">
        <ele>342.85</ele>
        <time>2017-04-24T11:02:37Z</time>
      </trkpt>
      <trkpt lat="43.93096" lon="5.22201">
        <ele>343.81</ele>
        <time>2017-04-24T11:02:49Z</time>
      </trkpt>
      <trkpt lat="43.93093" lon="5.22192">
        <ele>344.29</ele>
        <time>2017-04-24T11:03:02Z</time>
      </trkpt>
      <trkpt lat="43.93093" lon="5.22179">
        <ele>344.77</ele>
        <time>2017-04-24T11:03:14Z</time>
      </trkpt>
      <trkpt lat="43.93094" lon="5.2217">
        <ele>345.73</ele>
        <time>2017-04-24T11:03:25Z</time>
      </trkpt>
      <trkpt lat="43.93096" lon="5.22158">
        <ele>345.73</ele>
        <time>2017-04-24T11:03:38Z</time>
      </trkpt>
      <trkpt lat="43.93102" lon="5.22149">
        <ele>346.69</ele>
        <time>2017-04-24T11:03:50Z</time>
      </trkpt>
      <trkpt lat="43.93106" lon="5.22135">
        <ele>348.13</ele>
        <time>2017-04-24T11:04:04Z</time>
      </trkpt>
      <trkpt lat="43.93107" lon="5.22119">
        <ele>349.1</ele>
        <time>2017-04-24T11:04:17Z</time>
      </trkpt>
      <trkpt lat="43.93106" lon="5.22106">
        <ele>350.06</ele>
        <time>2017-04-24T11:04:28Z</time>
      </trkpt>
      <trkpt lat="43.93108" lon="5.22095">
        <ele>350.54</ele>
        <time>2017-04-24T11:04:39Z</time>
      </trkpt>
      <trkpt lat="43.9311" lon="5.2208">
        <ele>351.98</ele>
        <time>2017-04-24T11:04:53Z</time>
      </trkpt>
      <trkpt lat="43.93108" lon="5.2207">
        <ele>352.46</ele>
        <time>2017-04-24T11:05:04Z</time>
      </trkpt>
      <trkpt lat="43.93112" lon="5.22066">
        <ele>352.94</ele>
        <time>2017-04-24T11:05:11Z</time>
      </trkpt>
      <trkpt lat="43.9312" lon="5.22056">
        <ele>354.38</ele>
        <time>2017-04-24T11:05:28Z</time>
      </trkpt>
      <trkpt lat="43.93127" lon="5.22049">
        <ele>355.34</ele>
        <time>2017-04-24T11:05:41Z</time>
      </trkpt>
      <trkpt lat="43.93133" lon="5.22044">
        <ele>355.83</ele>
        <time>2017-04-24T11:05:56Z</time>
      </trkpt>
      <trkpt lat="43.93139" lon="5.2205">
        <ele>356.79</ele>
        <time>2017-04-24T11:06:08Z</time>
      </trkpt>
      <trkpt lat="43.9314" lon="5.2205">
        <ele>356.79</ele>
        <time>2017-04-24T11:06:10Z</time>
      </trkpt>
      <trkpt lat="43.93144" lon="5.2205">
        <ele>356.79</ele>
        <time>2017-04-24T11:06:14Z</time>
      </trkpt>
      <trkpt lat="43.9315" lon="5.22054">
        <ele>357.27</ele>
        <time>2017-04-24T11:06:22Z</time>
      </trkpt>
      <trkpt lat="43.93159" lon="5.2207">
        <ele>357.75</ele>
        <time>2017-04-24T11:06:33Z</time>
      </trkpt>
      <trkpt lat="43.93163" lon="5.22072">
        <ele>358.23</ele>
        <time>2017-04-24T11:06:37Z</time>
      </trkpt>
      <trkpt lat="43.93164" lon="5.22073">
        <ele>358.23</ele>
        <time>2017-04-24T11:06:39Z</time>
      </trkpt>
      <trkpt lat="43.93172" lon="5.22074">
        <ele>358.71</ele>
        <time>2017-04-24T11:06:52Z</time>
      </trkpt>
      <trkpt lat="43.93173" lon="5.22077">
        <ele>359.19</ele>
        <time>2017-04-24T11:06:54Z</time>
      </trkpt>
      <trkpt lat="43.93173" lon="5.22081">
        <ele>359.67</ele>
        <time>2017-04-24T11:06:57Z</time>
      </trkpt>
      <trkpt lat="43.93178" lon="5.22099">
        <ele>359.67</ele>
        <time>2017-04-24T11:07:12Z</time>
      </trkpt>
      <trkpt lat="43.9318" lon="5.22106">
        <ele>360.63</ele>
        <time>2017-04-24T11:07:20Z</time>
      </trkpt>
      <trkpt lat="43.93187" lon="5.22117">
        <ele>361.11</ele>
        <time>2017-04-24T11:07:34Z</time>
      </trkpt>
      <trkpt lat="43.93192" lon="5.22121">
        <ele>363.04</ele>
        <time>2017-04-24T11:07:49Z</time>
      </trkpt>
      <trkpt lat="43.93197" lon="5.22131">
        <ele>364.96</ele>
        <time>2017-04-24T11:08:03Z</time>
      </trkpt>
      <trkpt lat="43.93201" lon="5.22137">
        <ele>366.88</ele>
        <time>2017-04-24T11:08:17Z</time>
      </trkpt>
      <trkpt lat="43.93207" lon="5.22138">
        <ele>367.84</ele>
        <time>2017-04-24T11:08:30Z</time>
      </trkpt>
      <trkpt lat="43.93213" lon="5.22142">
        <ele>368.32</ele>
        <time>2017-04-24T11:08:42Z</time>
      </trkpt>
      <trkpt lat="43.93214" lon="5.22145">
        <ele>367.84</ele>
        <time>2017-04-24T11:09:00Z</time>
      </trkpt>
      <trkpt lat="43.93215" lon="5.22144">
        <ele>367.84</ele>
        <time>2017-04-24T11:09:22Z</time>
      </trkpt>
      <trkpt lat="43.93215" lon="5.22145">
        <ele>368.32</ele>
        <time>2017-04-24T11:09:38Z</time>
      </trkpt>
      <trkpt lat="43.93222" lon="5.22141">
        <ele>368.32</ele>
        <time>2017-04-24T11:09:51Z</time>
      </trkpt>
      <trkpt lat="43.93224" lon="5.22131">
        <ele>368.8</ele>
        <time>2017-04-24T11:10:05Z</time>
      </trkpt>
      <trkpt lat="43.93233" lon="5.22118">
        <ele>369.28</ele>
        <time>2017-04-24T11:10:22Z</time>
      </trkpt>
      <trkpt lat="43.93244" lon="5.22111">
        <ele>369.28</ele>
        <time>2017-04-24T11:10:36Z</time>
      </trkpt>
      <trkpt lat="43.9325" lon="5.22103">
        <ele>369.28</ele>
        <time>2017-04-24T11:10:48Z</time>
      </trkpt>
      <trkpt lat="43.9326" lon="5.22097">
        <ele>369.28</ele>
        <time>2017-04-24T11:11:02Z</time>
      </trkpt>
      <trkpt lat="43.9327" lon="5.22092">
        <ele>369.76</ele>
        <time>2017-04-24T11:11:14Z</time>
      </trkpt>
      <trkpt lat="43.93279" lon="5.22098">
        <ele>370.24</ele>
        <time>2017-04-24T11:11:27Z</time>
      </trkpt>
      <trkpt lat="43.93282" lon="5.22095">
        <ele>373.13</ele>
        <time>2017-04-24T11:11:40Z</time>
      </trkpt>
      <trkpt lat="43.93291" lon="5.22099">
        <ele>374.57</ele>
        <time>2017-04-24T11:11:54Z</time>
      </trkpt>
      <trkpt lat="43.93304" lon="5.22105">
        <ele>376.01</ele>
        <time>2017-04-24T11:12:08Z</time>
      </trkpt>
      <trkpt lat="43.93314" lon="5.22114">
        <ele>377.94</ele>
        <time>2017-04-24T11:12:21Z</time>
      </trkpt>
      <trkpt lat="43.93322" lon="5.22118">
        <ele>379.38</ele>
        <time>2017-04-24T11:12:35Z</time>
      </trkpt>
      <trkpt lat="43.93325" lon="5.2212">
        <ele>378.42</ele>
        <time>2017-04-24T11:12:47Z</time>
      </trkpt>
      <trkpt lat="43.9333" lon="5.22125">
        <ele>378.9</ele>
        <time>2017-04-24T11:12:58Z</time>
      </trkpt>
      <trkpt lat="43.93329" lon="5.22123">
        <ele>378.9</ele>
        <time>2017-04-24T11:13:12Z</time>
      </trkpt>
      <trkpt lat="43.93335" lon="5.2213">
        <ele>379.38</ele>
        <time>2017-04-24T11:13:27Z</time>
      </trkpt>
      <trkpt lat="43.93335" lon="5.2213">
        <ele>379.38</ele>
        <time>2017-04-24T11:13:55Z</time>
      </trkpt>
      <trkpt lat="43.93337" lon="5.22129">
        <ele>380.82</ele>
        <time>2017-04-24T11:14:09Z</time>
      </trkpt>
      <trkpt lat="43.93339" lon="5.22131">
        <ele>381.78</ele>
        <time>2017-04-24T11:14:17Z</time>
      </trkpt>
      <trkpt lat="43.9334" lon="5.22139">
        <ele>383.22</ele>
        <time>2017-04-24T11:14:30Z</time>
      </trkpt>
      <trkpt lat="43.93341" lon="5.22144">
        <ele>385.63</ele>
        <time>2017-04-24T11:14:44Z</time>
      </trkpt>
      <trkpt lat="43.93341" lon="5.22141">
        <ele>387.07</ele>
        <time>2017-04-24T11:14:56Z</time>
      </trkpt>
      <trkpt lat="43.93344" lon="5.22137">
        <ele>388.99</ele>
        <time>2017-04-24T11:15:07Z</time>
      </trkpt>
      <trkpt lat="43.93353" lon="5.22134">
        <ele>390.43</ele>
        <time>2017-04-24T11:15:21Z</time>
      </trkpt>
      <trkpt lat="43.93364" lon="5.2213">
        <ele>391.87</ele>
        <time>2017-04-24T11:15:34Z</time>
      </trkpt>
      <trkpt lat="43.93375" lon="5.22131">
        <ele>392.36</ele>
        <time>2017-04-24T11:15:47Z</time>
      </trkpt>
      <trkpt lat="43.93379" lon="5.22137">
        <ele>390.91</ele>
        <time>2017-04-24T11:16:02Z</time>
      </trkpt>
      <trkpt lat="43.93384" lon="5.22141">
        <ele>389.95</ele>
        <time>2017-04-24T11:16:09Z</time>
      </trkpt>
      <trkpt lat="43.93388" lon="5.22144">
        <ele>388.99</ele>
        <time>2017-04-24T11:16:14Z</time>
      </trkpt>
      <trkpt lat="43.93396" lon="5.22143">
        <ele>388.99</ele>
        <time>2017-04-24T11:16:27Z</time>
      </trkpt>
      <trkpt lat="43.934" lon="5.22143">
        <ele>389.95</ele>
        <time>2017-04-24T11:16:38Z</time>
      </trkpt>
      <trkpt lat="43.93401" lon="5.22143">
        <ele>389.95</ele>
        <time>2017-04-24T11:16:41Z</time>
      </trkpt>
      <trkpt lat="43.93411" lon="5.22142">
        <ele>389.95</ele>
        <time>2017-04-24T11:16:54Z</time>
      </trkpt>
      <trkpt lat="43.93421" lon="5.22141">
        <ele>390.43</ele>
        <time>2017-04-24T11:17:06Z</time>
      </trkpt>
      <trkpt lat="43.93432" lon="5.22139">
        <ele>390.43</ele>
        <time>2017-04-24T11:17:20Z</time>
      </trkpt>
      <trkpt lat="43.93439" lon="5.22133">
        <ele>389.47</ele>
        <time>2017-04-24T11:17:33Z</time>
      </trkpt>
      <trkpt lat="43.93449" lon="5.22124">
        <ele>390.43</ele>
        <time>2017-04-24T11:17:48Z</time>
      </trkpt>
      <trkpt lat="43.93457" lon="5.22122">
        <ele>390.91</ele>
        <time>2017-04-24T11:18:02Z</time>
      </trkpt>
      <trkpt lat="43.93468" lon="5.22123">
        <ele>391.39</ele>
        <time>2017-04-24T11:18:14Z</time>
      </trkpt>
      <trkpt lat="43.93475" lon="5.22122">
        <ele>391.39</ele>
        <time>2017-04-24T11:18:21Z</time>
      </trkpt>
      <trkpt lat="43.93482" lon="5.22123">
        <ele>391.39</ele>
        <time>2017-04-24T11:18:30Z</time>
      </trkpt>
      <trkpt lat="43.935" lon="5.2212">
        <ele>392.36</ele>
        <time>2017-04-24T11:18:45Z</time>
      </trkpt>
      <trkpt lat="43.93512" lon="5.22119">
        <ele>393.32</ele>
        <time>2017-04-24T11:18:59Z</time>
      </trkpt>
      <trkpt lat="43.93523" lon="5.22116">
        <ele>394.28</ele>
        <time>2017-04-24T11:19:13Z</time>
      </trkpt>
      <trkpt lat="43.9353" lon="5.22112">
        <ele>396.68</ele>
        <time>2017-04-24T11:19:27Z</time>
      </trkpt>
      <trkpt lat="43.93538" lon="5.22109">
        <ele>397.64</ele>
        <time>2017-04-24T11:19:39Z</time>
      </trkpt>
      <trkpt lat="43.93545" lon="5.22107">
        <ele>398.6</ele>
        <time>2017-04-24T11:19:53Z</time>
      </trkpt>
      <trkpt lat="43.93552" lon="5.22104">
        <ele>399.08</ele>
        <time>2017-04-24T11:20:08Z</time>
      </trkpt>
      <trkpt lat="43.93561" lon="5.22101">
        <ele>396.68</ele>
        <time>2017-04-24T11:20:21Z</time>
      </trkpt>
      <trkpt lat="43.93572" lon="5.22098">
        <ele>397.16</ele>
        <time>2017-04-24T11:20:34Z</time>
      </trkpt>
      <trkpt lat="43.93586" lon="5.22094">
        <ele>398.6</ele>
        <time>2017-04-24T11:20:46Z</time>
      </trkpt>
      <trkpt lat="43.93602" lon="5.22091">
        <ele>399.57</ele>
        <time>2017-04-24T11:21:02Z</time>
      </trkpt>
      <trkpt lat="43.93614" lon="5.22092">
        <ele>399.57</ele>
        <time>2017-04-24T11:21:15Z</time>
      </trkpt>
      <trkpt lat="43.93627" lon="5.22097">
        <ele>400.05</ele>
        <time>2017-04-24T11:21:30Z</time>
      </trkpt>
      <trkpt lat="43.93639" lon="5.22103">
        <ele>400.53</ele>
        <time>2017-04-24T11:21:45Z</time>
      </trkpt>
      <trkpt lat="43.93651" lon="5.22107">
        <ele>401.97</ele>
        <time>2017-04-24T11:21:59Z</time>
      </trkpt>
      <trkpt lat="43.93658" lon="5.22113">
        <ele>402.45</ele>
        <time>2017-04-24T11:22:12Z</time>
      </trkpt>
      <trkpt lat="43.93667" lon="5.22118">
        <ele>402.93</ele>
        <time>2017-04-24T11:22:25Z</time>
      </trkpt>
      <trkpt lat="43.93675" lon="5.22125">
        <ele>403.41</ele>
        <time>2017-04-24T11:22:38Z</time>
      </trkpt>
      <trkpt lat="43.93683" lon="5.2213">
        <ele>404.37</ele>
        <time>2017-04-24T11:22:51Z</time>
      </trkpt>
      <trkpt lat="43.93692" lon="5.2213">
        <ele>404.85</ele>
        <time>2017-04-24T11:23:04Z</time>
      </trkpt>
      <trkpt lat="43.93704" lon="5.22133">
        <ele>406.77</ele>
        <time>2017-04-24T11:23:18Z</time>
      </trkpt>
      <trkpt lat="43.93713" lon="5.22138">
        <ele>406.77</ele>
        <time>2017-04-24T11:23:31Z</time>
      </trkpt>
      <trkpt lat="43.93724" lon="5.22138">
        <ele>405.81</ele>
        <time>2017-04-24T11:23:46Z</time>
      </trkpt>
      <trkpt lat="43.93733" lon="5.22138">
        <ele>406.29</ele>
        <time>2017-04-24T11:23:58Z</time>
      </trkpt>
      <trkpt lat="43.93738" lon="5.22138">
        <ele>407.74</ele>
        <time>2017-04-24T11:24:07Z</time>
      </trkpt>
      <trkpt lat="43.93745" lon="5.22137">
        <ele>408.7</ele>
        <time>2017-04-24T11:24:20Z</time>
      </trkpt>
      <trkpt lat="43.93755" lon="5.22138">
        <ele>410.14</ele>
        <time>2017-04-24T11:24:33Z</time>
      </trkpt>
      <trkpt lat="43.93769" lon="5.2214">
        <ele>410.62</ele>
        <time>2017-04-24T11:24:48Z</time>
      </trkpt>
      <trkpt lat="43.93781" lon="5.22139">
        <ele>411.58</ele>
        <time>2017-04-24T11:25:01Z</time>
      </trkpt>
      <trkpt lat="43.93794" lon="5.22133">
        <ele>412.06</ele>
        <time>2017-04-24T11:25:15Z</time>
      </trkpt>
      <trkpt lat="43.93807" lon="5.2213">
        <ele>413.02</ele>
        <time>2017-04-24T11:25:29Z</time>
      </trkpt>
      <trkpt lat="43.9382" lon="5.22137">
        <ele>411.58</ele>
        <time>2017-04-24T11:25:42Z</time>
      </trkpt>
      <trkpt lat="43.9382" lon="5.22137">
        <ele>411.58</ele>
        <time>2017-04-24T11:25:43Z</time>
      </trkpt>
      <trkpt lat="43.93828" lon="5.22144">
        <ele>411.58</ele>
        <time>2017-04-24T11:25:55Z</time>
      </trkpt>
      <trkpt lat="43.93832" lon="5.2215">
        <ele>412.06</ele>
        <time>2017-04-24T11:26:12Z</time>
      </trkpt>
      <trkpt lat="43.93832" lon="5.22154">
        <ele>410.14</ele>
        <time>2017-04-24T11:26:23Z</time>
      </trkpt>
      <trkpt lat="43.9383" lon="5.22151">
        <ele>412.06</ele>
        <time>2017-04-24T11:26:39Z</time>
      </trkpt>
      <trkpt lat="43.93832" lon="5.22151">
        <ele>410.62</ele>
        <time>2017-04-24T11:26:52Z</time>
      </trkpt>
      <trkpt lat="43.93832" lon="5.22154">
        <ele>410.62</ele>
        <time>2017-04-24T11:27:04Z</time>
      </trkpt>
      <trkpt lat="43.93832" lon="5.22153">
        <ele>412.06</ele>
        <time>2017-04-24T11:27:14Z</time>
      </trkpt>
      <trkpt lat="43.93831" lon="5.22158">
        <ele>411.58</ele>
        <time>2017-04-24T11:27:27Z</time>
      </trkpt>
      <trkpt lat="43.93831" lon="5.22165">
        <ele>413.5</ele>
        <time>2017-04-24T11:27:46Z</time>
      </trkpt>
      <trkpt lat="43.93823" lon="5.22164">
        <ele>415.91</ele>
        <time>2017-04-24T11:28:01Z</time>
      </trkpt>
      <trkpt lat="43.93824" lon="5.22171">
        <ele>416.87</ele>
        <time>2017-04-24T11:28:18Z</time>
      </trkpt>
      <trkpt lat="43.93824" lon="5.22174">
        <ele>418.79</ele>
        <time>2017-04-24T11:28:34Z</time>
      </trkpt>
      <trkpt lat="43.93828" lon="5.2218">
        <ele>420.71</ele>
        <time>2017-04-24T11:28:50Z</time>
      </trkpt>
      <trkpt lat="43.93833" lon="5.22183">
        <ele>422.16</ele>
        <time>2017-04-24T11:29:09Z</time>
      </trkpt>
      <trkpt lat="43.93838" lon="5.2219">
        <ele>425.04</ele>
        <time>2017-04-24T11:29:22Z</time>
      </trkpt>
      <trkpt lat="43.93846" lon="5.22196">
        <ele>426.48</ele>
        <time>2017-04-24T11:29:37Z</time>
      </trkpt>
      <trkpt lat="43.93852" lon="5.22201">
        <ele>426.48</ele>
        <time>2017-04-24T11:29:58Z</time>
      </trkpt>
      <trkpt lat="43.93857" lon="5.22209">
        <ele>427.92</ele>
        <time>2017-04-24T11:30:11Z</time>
      </trkpt>
      <trkpt lat="43.93865" lon="5.22219">
        <ele>427.92</ele>
        <time>2017-04-24T11:30:24Z</time>
      </trkpt>
      <trkpt lat="43.93874" lon="5.22225">
        <ele>427.92</ele>
        <time>2017-04-24T11:30:39Z</time>
      </trkpt>
      <trkpt lat="43.93883" lon="5.22227">
        <ele>427.92</ele>
        <time>2017-04-24T11:30:53Z</time>
      </trkpt>
      <trkpt lat="43.93893" lon="5.22232">
        <ele>427.92</ele>
        <time>2017-04-24T11:31:10Z</time>
      </trkpt>
      <trkpt lat="43.93902" lon="5.22229">
        <ele>427.44</ele>
        <time>2017-04-24T11:31:29Z</time>
      </trkpt>
      <trkpt lat="43.93907" lon="5.22222">
        <ele>428.4</ele>
        <time>2017-04-24T11:31:43Z</time>
      </trkpt>
      <trkpt lat="43.93912" lon="5.22214">
        <ele>429.37</ele>
        <time>2017-04-24T11:31:57Z</time>
      </trkpt>
      <trkpt lat="43.93913" lon="5.22213">
        <ele>429.37</ele>
        <time>2017-04-24T11:31:58Z</time>
      </trkpt>
      <trkpt lat="43.9392" lon="5.22199">
        <ele>430.33</ele>
        <time>2017-04-24T11:32:14Z</time>
      </trkpt>
      <trkpt lat="43.93929" lon="5.2219">
        <ele>430.33</ele>
        <time>2017-04-24T11:32:29Z</time>
      </trkpt>
      <trkpt lat="43.93938" lon="5.2219">
        <ele>431.29</ele>
        <time>2017-04-24T11:32:48Z</time>
      </trkpt>
      <trkpt lat="43.93948" lon="5.22199">
        <ele>432.25</ele>
        <time>2017-04-24T11:33:05Z</time>
      </trkpt>
      <trkpt lat="43.9396" lon="5.22199">
        <ele>432.25</ele>
        <time>2017-04-24T11:33:19Z</time>
      </trkpt>
      <trkpt lat="43.93971" lon="5.222">
        <ele>432.25</ele>
        <time>2017-04-24T11:33:35Z</time>
      </trkpt>
      <trkpt lat="43.93973" lon="5.22198">
        <ele>430.81</ele>
        <time>2017-04-24T11:33:39Z</time>
      </trkpt>
      <trkpt lat="43.93984" lon="5.22193">
        <ele>428.89</ele>
        <time>2017-04-24T11:33:54Z</time>
      </trkpt>
      <trkpt lat="43.93988" lon="5.22196">
        <ele>428.89</ele>
        <time>2017-04-24T11:34:08Z</time>
      </trkpt>
      <trkpt lat="43.93988" lon="5.22197">
        <ele>427.44</ele>
        <time>2017-04-24T11:34:15Z</time>
      </trkpt>
      <trkpt lat="43.9399" lon="5.222">
        <ele>426.48</ele>
        <time>2017-04-24T11:34:28Z</time>
      </trkpt>
      <trkpt lat="43.93991" lon="5.22204">
        <ele>425.04</ele>
        <time>2017-04-24T11:34:42Z</time>
      </trkpt>
      <trkpt lat="43.93993" lon="5.22206">
        <ele>424.08</ele>
        <time>2017-04-24T11:35:04Z</time>
      </trkpt>
      <trkpt lat="43.93997" lon="5.22204">
        <ele>422.16</ele>
        <time>2017-04-24T11:35:23Z</time>
      </trkpt>
      <trkpt lat="43.94002" lon="5.22201">
        <ele>418.79</ele>
        <time>2017-04-24T11:35:41Z</time>
      </trkpt>
      <trkpt lat="43.94006" lon="5.22198">
        <ele>420.23</ele>
        <time>2017-04-24T11:35:56Z</time>
      </trkpt>
      <trkpt lat="43.94007" lon="5.22198">
        <ele>421.68</ele>
        <time>2017-04-24T11:36:21Z</time>
      </trkpt>
      <trkpt lat="43.94013" lon="5.22196">
        <ele>424.08</ele>
        <time>2017-04-24T11:36:38Z</time>
      </trkpt>
      <trkpt lat="43.94013" lon="5.22196">
        <ele>424.08</ele>
        <time>2017-04-24T11:36:39Z</time>
      </trkpt>
      <trkpt lat="43.94016" lon="5.22205">
        <ele>426</ele>
        <time>2017-04-24T11:36:55Z</time>
      </trkpt>
      <trkpt lat="43.94021" lon="5.22205">
        <ele>425.52</ele>
        <time>2017-04-24T11:37:09Z</time>
      </trkpt>
      <trkpt lat="43.94019" lon="5.22204">
        <ele>425.52</ele>
        <time>2017-04-24T11:37:24Z</time>
      </trkpt>
      <trkpt lat="43.94018" lon="5.222">
        <ele>425.04</ele>
        <time>2017-04-24T11:37:50Z</time>
      </trkpt>
      <trkpt lat="43.9402" lon="5.22204">
        <ele>425.04</ele>
        <time>2017-04-24T11:38:09Z</time>
      </trkpt>
      <trkpt lat="43.94019" lon="5.22206">
        <ele>424.56</ele>
        <time>2017-04-24T11:38:31Z</time>
      </trkpt>
      <trkpt lat="43.94019" lon="5.22202">
        <ele>425.04</ele>
        <time>2017-04-24T11:38:47Z</time>
      </trkpt>
      <trkpt lat="43.94019" lon="5.222">
        <ele>423.6</ele>
        <time>2017-04-24T11:39:01Z</time>
      </trkpt>
      <trkpt lat="43.94019" lon="5.22199">
        <ele>423.12</ele>
        <time>2017-04-24T11:39:36Z</time>
      </trkpt>
      <trkpt lat="43.94021" lon="5.22199">
        <ele>423.12</ele>
        <time>2017-04-24T11:40:13Z</time>
      </trkpt>
      <trkpt lat="43.9402" lon="5.22201">
        <ele>424.56</ele>
        <time>2017-04-24T11:40:22Z</time>
      </trkpt>
      <trkpt lat="43.94021" lon="5.222">
        <ele>424.08</ele>
        <time>2017-04-24T11:40:49Z</time>
      </trkpt>
      <trkpt lat="43.94022" lon="5.22201">
        <ele>424.08</ele>
        <time>2017-04-24T11:41:09Z</time>
      </trkpt>
      <trkpt lat="43.94022" lon="5.222">
        <ele>424.56</ele>
        <time>2017-04-24T11:41:21Z</time>
      </trkpt>
      <trkpt lat="43.94021" lon="5.222">
        <ele>424.08</ele>
        <time>2017-04-24T11:41:36Z</time>
      </trkpt>
      <trkpt lat="43.94019" lon="5.22195">
        <ele>424.08</ele>
        <time>2017-04-24T11:41:52Z</time>
      </trkpt>
      <trkpt lat="43.9402" lon="5.22184">
        <ele>424.08</ele>
        <time>2017-04-24T11:42:05Z</time>
      </trkpt>
      <trkpt lat="43.94023" lon="5.22175">
        <ele>426</ele>
        <time>2017-04-24T11:42:17Z</time>
      </trkpt>
      <trkpt lat="43.94019" lon="5.22163">
        <ele>428.4</ele>
        <time>2017-04-24T11:42:30Z</time>
      </trkpt>
      <trkpt lat="43.94017" lon="5.22155">
        <ele>428.4</ele>
        <time>2017-04-24T11:42:40Z</time>
      </trkpt>
      <trkpt lat="43.94009" lon="5.22148">
        <ele>430.33</ele>
        <time>2017-04-24T11:42:53Z</time>
      </trkpt>
      <trkpt lat="43.94006" lon="5.22146">
        <ele>430.81</ele>
        <time>2017-04-24T11:42:57Z</time>
      </trkpt>
      <trkpt lat="43.93996" lon="5.22139">
        <ele>431.77</ele>
        <time>2017-04-24T11:43:12Z</time>
      </trkpt>
      <trkpt lat="43.93992" lon="5.22135">
        <ele>433.69</ele>
        <time>2017-04-24T11:43:21Z</time>
      </trkpt>
      <trkpt lat="43.93983" lon="5.22134">
        <ele>434.65</ele>
        <time>2017-04-24T11:43:33Z</time>
      </trkpt>
      <trkpt lat="43.93968" lon="5.22131">
        <ele>435.61</ele>
        <time>2017-04-24T11:43:49Z</time>
      </trkpt>
      <trkpt lat="43.93953" lon="5.2213">
        <ele>435.13</ele>
        <time>2017-04-24T11:44:04Z</time>
      </trkpt>
      <trkpt lat="43.93939" lon="5.22126">
        <ele>435.61</ele>
        <time>2017-04-24T11:44:19Z</time>
      </trkpt>
      <trkpt lat="43.93927" lon="5.22122">
        <ele>436.58</ele>
        <time>2017-04-24T11:44:34Z</time>
      </trkpt>
      <trkpt lat="43.9392" lon="5.22122">
        <ele>436.58</ele>
        <time>2017-04-24T11:44:53Z</time>
      </trkpt>
      <trkpt lat="43.93904" lon="5.22119">
        <ele>435.13</ele>
        <time>2017-04-24T11:45:08Z</time>
      </trkpt>
      <trkpt lat="43.93903" lon="5.22117">
        <ele>436.58</ele>
        <time>2017-04-24T11:45:10Z</time>
      </trkpt>
      <trkpt lat="43.93901" lon="5.22115">
        <ele>437.06</ele>
        <time>2017-04-24T11:45:12Z</time>
      </trkpt>
      <trkpt lat="43.93903" lon="5.22108">
        <ele>439.46</ele>
        <time>2017-04-24T11:45:26Z</time>
      </trkpt>
      <trkpt lat="43.93908" lon="5.22107">
        <ele>441.38</ele>
        <time>2017-04-24T11:45:39Z</time>
      </trkpt>
      <trkpt lat="43.93908" lon="5.22094">
        <ele>443.31</ele>
        <time>2017-04-24T11:45:52Z</time>
      </trkpt>
      <trkpt lat="43.93907" lon="5.22083">
        <ele>445.23</ele>
        <time>2017-04-24T11:46:06Z</time>
      </trkpt>
      <trkpt lat="43.93906" lon="5.22074">
        <ele>446.67</ele>
        <time>2017-04-24T11:46:18Z</time>
      </trkpt>
      <trkpt lat="43.93904" lon="5.22067">
        <ele>447.63</ele>
        <time>2017-04-24T11:46:27Z</time>
      </trkpt>
      <trkpt lat="43.939" lon="5.22055">
        <ele>448.59</ele>
        <time>2017-04-24T11:46:42Z</time>
      </trkpt>
      <trkpt lat="43.939" lon="5.22047">
        <ele>450.52</ele>
        <time>2017-04-24T11:46:54Z</time>
      </trkpt>
      <trkpt lat="43.939" lon="5.22038">
        <ele>453.4</ele>
        <time>2017-04-24T11:47:09Z</time>
      </trkpt>
      <trkpt lat="43.93899" lon="5.2203">
        <ele>453.88</ele>
        <time>2017-04-24T11:47:23Z</time>
      </trkpt>
      <trkpt lat="43.939" lon="5.22028">
        <ele>454.36</ele>
        <time>2017-04-24T11:47:35Z</time>
      </trkpt>
      <trkpt lat="43.93898" lon="5.22028">
        <ele>452.44</ele>
        <time>2017-04-24T11:47:57Z</time>
      </trkpt>
      <trkpt lat="43.93897" lon="5.22029">
        <ele>453.88</ele>
        <time>2017-04-24T11:48:12Z</time>
      </trkpt>
      <trkpt lat="43.93899" lon="5.22025">
        <ele>454.84</ele>
        <time>2017-04-24T11:48:28Z</time>
      </trkpt>
      <trkpt lat="43.93899" lon="5.22017">
        <ele>455.8</ele>
        <time>2017-04-24T11:48:42Z</time>
      </trkpt>
      <trkpt lat="43.93899" lon="5.22011">
        <ele>456.28</ele>
        <time>2017-04-24T11:48:47Z</time>
      </trkpt>
      <trkpt lat="43.93901" lon="5.21994">
        <ele>457.24</ele>
        <time>2017-04-24T11:49:00Z</time>
      </trkpt>
      <trkpt lat="43.93904" lon="5.21981">
        <ele>458.21</ele>
        <time>2017-04-24T11:49:08Z</time>
      </trkpt>
      <trkpt lat="43.93907" lon="5.21973">
        <ele>458.69</ele>
        <time>2017-04-24T11:49:26Z</time>
      </trkpt>
      <trkpt lat="43.93907" lon="5.21972">
        <ele>459.17</ele>
        <time>2017-04-24T11:49:45Z</time>
      </trkpt>
      <trkpt lat="43.93909" lon="5.21962">
        <ele>460.13</ele>
        <time>2017-04-24T11:49:58Z</time>
      </trkpt>
      <trkpt lat="43.93908" lon="5.21947">
        <ele>460.61</ele>
        <time>2017-04-24T11:50:13Z</time>
      </trkpt>
      <trkpt lat="43.93906" lon="5.21932">
        <ele>460.61</ele>
        <time>2017-04-24T11:50:27Z</time>
      </trkpt>
      <trkpt lat="43.93908" lon="5.21919">
        <ele>462.05</ele>
        <time>2017-04-24T11:50:41Z</time>
      </trkpt>
      <trkpt lat="43.9391" lon="5.21908">
        <ele>462.53</ele>
        <time>2017-04-24T11:50:57Z</time>
      </trkpt>
      <trkpt lat="43.93907" lon="5.21908">
        <ele>463.01</ele>
        <time>2017-04-24T11:51:10Z</time>
      </trkpt>
      <trkpt lat="43.93902" lon="5.21911">
        <ele>463.49</ele>
        <time>2017-04-24T11:51:25Z</time>
      </trkpt>
      <trkpt lat="43.93895" lon="5.21918">
        <ele>463.49</ele>
        <time>2017-04-24T11:51:38Z</time>
      </trkpt>
      <trkpt lat="43.93893" lon="5.2192">
        <ele>462.05</ele>
        <time>2017-04-24T11:51:43Z</time>
      </trkpt>
      <trkpt lat="43.9389" lon="5.21926">
        <ele>461.57</ele>
        <time>2017-04-24T11:51:58Z</time>
      </trkpt>
      <trkpt lat="43.93884" lon="5.21927">
        <ele>461.09</ele>
        <time>2017-04-24T11:52:16Z</time>
      </trkpt>
      <trkpt lat="43.93885" lon="5.21931">
        <ele>459.65</ele>
        <time>2017-04-24T11:52:32Z</time>
      </trkpt>
      <trkpt lat="43.93883" lon="5.21937">
        <ele>457.72</ele>
        <time>2017-04-24T11:52:45Z</time>
      </trkpt>
      <trkpt lat="43.9388" lon="5.21946">
        <ele>456.76</ele>
        <time>2017-04-24T11:52:59Z</time>
      </trkpt>
      <trkpt lat="43.93875" lon="5.2195">
        <ele>456.76</ele>
        <time>2017-04-24T11:53:14Z</time>
      </trkpt>
      <trkpt lat="43.93871" lon="5.21959">
        <ele>456.28</ele>
        <time>2017-04-24T11:53:27Z</time>
      </trkpt>
      <trkpt lat="43.93861" lon="5.21971">
        <ele>457.24</ele>
        <time>2017-04-24T11:53:42Z</time>
      </trkpt>
      <trkpt lat="43.93854" lon="5.21974">
        <ele>459.17</ele>
        <time>2017-04-24T11:53:54Z</time>
      </trkpt>
      <trkpt lat="43.93847" lon="5.2198">
        <ele>460.13</ele>
        <time>2017-04-24T11:54:06Z</time>
      </trkpt>
      <trkpt lat="43.93839" lon="5.21987">
        <ele>461.09</ele>
        <time>2017-04-24T11:54:21Z</time>
      </trkpt>
      <trkpt lat="43.93833" lon="5.21988">
        <ele>461.57</ele>
        <time>2017-04-24T11:54:41Z</time>
      </trkpt>
      <trkpt lat="43.9383" lon="5.2199">
        <ele>463.49</ele>
        <time>2017-04-24T11:54:52Z</time>
      </trkpt>
      <trkpt lat="43.93828" lon="5.2199">
        <ele>463.97</ele>
        <time>2017-04-24T11:55:06Z</time>
      </trkpt>
      <trkpt lat="43.93827" lon="5.21989">
        <ele>464.45</ele>
        <time>2017-04-24T11:55:23Z</time>
      </trkpt>
      <trkpt lat="43.93824" lon="5.21986">
        <ele>465.9</ele>
        <time>2017-04-24T11:55:37Z</time>
      </trkpt>
      <trkpt lat="43.9382" lon="5.21985">
        <ele>467.34</ele>
        <time>2017-04-24T11:55:49Z</time>
      </trkpt>
      <trkpt lat="43.93814" lon="5.21983">
        <ele>469.26</ele>
        <time>2017-04-24T11:56:04Z</time>
      </trkpt>
      <trkpt lat="43.93808" lon="5.21978">
        <ele>472.14</ele>
        <time>2017-04-24T11:56:20Z</time>
      </trkpt>
      <trkpt lat="43.93801" lon="5.21972">
        <ele>474.07</ele>
        <time>2017-04-24T11:56:32Z</time>
      </trkpt>
      <trkpt lat="43.9379" lon="5.2197">
        <ele>475.03</ele>
        <time>2017-04-24T11:56:47Z</time>
      </trkpt>
      <trkpt lat="43.93785" lon="5.21967">
        <ele>475.99</ele>
        <time>2017-04-24T11:56:54Z</time>
      </trkpt>
      <trkpt lat="43.9378" lon="5.21963">
        <ele>476.95</ele>
        <time>2017-04-24T11:57:07Z</time>
      </trkpt>
      <trkpt lat="43.93777" lon="5.21963">
        <ele>477.43</ele>
        <time>2017-04-24T11:57:26Z</time>
      </trkpt>
      <trkpt lat="43.93776" lon="5.21963">
        <ele>477.43</ele>
        <time>2017-04-24T11:57:44Z</time>
      </trkpt>
      <trkpt lat="43.93779" lon="5.21961">
        <ele>477.91</ele>
        <time>2017-04-24T11:58:09Z</time>
      </trkpt>
      <trkpt lat="43.93786" lon="5.21954">
        <ele>479.35</ele>
        <time>2017-04-24T11:58:22Z</time>
      </trkpt>
      <trkpt lat="43.93798" lon="5.21945">
        <ele>481.28</ele>
        <time>2017-04-24T11:58:37Z</time>
      </trkpt>
      <trkpt lat="43.93799" lon="5.2194">
        <ele>483.68</ele>
        <time>2017-04-24T11:58:50Z</time>
      </trkpt>
      <trkpt lat="43.93793" lon="5.21933">
        <ele>484.64</ele>
        <time>2017-04-24T11:59:02Z</time>
      </trkpt>
      <trkpt lat="43.93785" lon="5.21928">
        <ele>486.56</ele>
        <time>2017-04-24T11:59:15Z</time>
      </trkpt>
      <trkpt lat="43.93777" lon="5.21924">
        <ele>488.49</ele>
        <time>2017-04-24T11:59:28Z</time>
      </trkpt>
      <trkpt lat="43.93771" lon="5.21916">
        <ele>490.89</ele>
        <time>2017-04-24T11:59:41Z</time>
      </trkpt>
      <trkpt lat="43.93766" lon="5.21907">
        <ele>492.81</ele>
        <time>2017-04-24T11:59:56Z</time>
      </trkpt>
      <trkpt lat="43.93763" lon="5.21901">
        <ele>494.74</ele>
        <time>2017-04-24T12:00:09Z</time>
      </trkpt>
      <trkpt lat="43.9376" lon="5.21893">
        <ele>495.7</ele>
        <time>2017-04-24T12:00:21Z</time>
      </trkpt>
      <trkpt lat="43.93758" lon="5.21882">
        <ele>497.62</ele>
        <time>2017-04-24T12:00:36Z</time>
      </trkpt>
      <trkpt lat="43.93759" lon="5.21871">
        <ele>498.58</ele>
        <time>2017-04-24T12:00:48Z</time>
      </trkpt>
      <trkpt lat="43.93764" lon="5.21863">
        <ele>499.54</ele>
        <time>2017-04-24T12:01:00Z</time>
      </trkpt>
      <trkpt lat="43.93765" lon="5.21855">
        <ele>500.5</ele>
        <time>2017-04-24T12:01:12Z</time>
      </trkpt>
      <trkpt lat="43.93766" lon="5.21851">
        <ele>500.02</ele>
        <time>2017-04-24T12:01:29Z</time>
      </trkpt>
      <trkpt lat="43.93765" lon="5.2185">
        <ele>498.58</ele>
        <time>2017-04-24T12:01:41Z</time>
      </trkpt>
      <trkpt lat="43.93766" lon="5.2185">
        <ele>499.06</ele>
        <time>2017-04-24T12:02:02Z</time>
      </trkpt>
      <trkpt lat="43.93767" lon="5.21851">
        <ele>499.54</ele>
        <time>2017-04-24T12:02:28Z</time>
      </trkpt>
      <trkpt lat="43.93766" lon="5.2185">
        <ele>498.1</ele>
        <time>2017-04-24T12:02:57Z</time>
      </trkpt>
      <trkpt lat="43.93766" lon="5.2185">
        <ele>499.54</ele>
        <time>2017-04-24T12:03:04Z</time>
      </trkpt>
      <trkpt lat="43.93765" lon="5.21851">
        <ele>499.06</ele>
        <time>2017-04-24T12:03:25Z</time>
      </trkpt>
      <trkpt lat="43.93766" lon="5.21851">
        <ele>499.54</ele>
        <time>2017-04-24T12:03:45Z</time>
      </trkpt>
      <trkpt lat="43.93765" lon="5.21848">
        <ele>499.54</ele>
        <time>2017-04-24T12:03:56Z</time>
      </trkpt>
      <trkpt lat="43.93765" lon="5.21849">
        <ele>500.02</ele>
        <time>2017-04-24T12:04:15Z</time>
      </trkpt>
      <trkpt lat="43.93765" lon="5.21845">
        <ele>499.54</ele>
        <time>2017-04-24T12:04:40Z</time>
      </trkpt>
      <trkpt lat="43.93761" lon="5.2183">
        <ele>497.62</ele>
        <time>2017-04-24T12:04:55Z</time>
      </trkpt>
      <trkpt lat="43.9376" lon="5.21816">
        <ele>497.62</ele>
        <time>2017-04-24T12:05:07Z</time>
      </trkpt>
      <trkpt lat="43.93759" lon="5.21803">
        <ele>497.14</ele>
        <time>2017-04-24T12:05:17Z</time>
      </trkpt>
      <trkpt lat="43.93755" lon="5.21786">
        <ele>495.7</ele>
        <time>2017-04-24T12:05:31Z</time>
      </trkpt>
      <trkpt lat="43.93755" lon="5.21781">
        <ele>495.7</ele>
        <time>2017-04-24T12:05:34Z</time>
      </trkpt>
      <trkpt lat="43.93752" lon="5.2176">
        <ele>495.7</ele>
        <time>2017-04-24T12:05:50Z</time>
      </trkpt>
      <trkpt lat="43.93751" lon="5.21738">
        <ele>495.7</ele>
        <time>2017-04-24T12:06:06Z</time>
      </trkpt>
      <trkpt lat="43.9375" lon="5.2173">
        <ele>497.14</ele>
        <time>2017-04-24T12:06:14Z</time>
      </trkpt>
      <trkpt lat="43.93745" lon="5.21715">
        <ele>497.14</ele>
        <time>2017-04-24T12:06:28Z</time>
      </trkpt>
      <trkpt lat="43.9374" lon="5.21703">
        <ele>495.22</ele>
        <time>2017-04-24T12:06:42Z</time>
      </trkpt>
      <trkpt lat="43.93738" lon="5.21697">
        <ele>494.74</ele>
        <time>2017-04-24T12:06:59Z</time>
      </trkpt>
      <trkpt lat="43.93735" lon="5.21699">
        <ele>496.18</ele>
        <time>2017-04-24T12:07:03Z</time>
      </trkpt>
      <trkpt lat="43.93728" lon="5.21696">
        <ele>499.06</ele>
        <time>2017-04-24T12:07:16Z</time>
      </trkpt>
      <trkpt lat="43.93727" lon="5.21696">
        <ele>499.54</ele>
        <time>2017-04-24T12:07:18Z</time>
      </trkpt>
      <trkpt lat="43.93715" lon="5.21693">
        <ele>501.95</ele>
        <time>2017-04-24T12:07:32Z</time>
      </trkpt>
      <trkpt lat="43.93704" lon="5.21688">
        <ele>503.87</ele>
        <time>2017-04-24T12:07:45Z</time>
      </trkpt>
      <trkpt lat="43.93693" lon="5.21686">
        <ele>503.87</ele>
        <time>2017-04-24T12:07:59Z</time>
      </trkpt>
      <trkpt lat="43.93681" lon="5.21681">
        <ele>504.83</ele>
        <time>2017-04-24T12:08:13Z</time>
      </trkpt>
      <trkpt lat="43.93674" lon="5.21676">
        <ele>504.83</ele>
        <time>2017-04-24T12:08:26Z</time>
      </trkpt>
      <trkpt lat="43.93669" lon="5.21674">
        <ele>504.83</ele>
        <time>2017-04-24T12:08:41Z</time>
      </trkpt>
      <trkpt lat="43.93659" lon="5.21668">
        <ele>504.83</ele>
        <time>2017-04-24T12:08:55Z</time>
      </trkpt>
      <trkpt lat="43.93649" lon="5.21664">
        <ele>504.35</ele>
        <time>2017-04-24T12:09:10Z</time>
      </trkpt>
      <trkpt lat="43.93641" lon="5.21661">
        <ele>503.39</ele>
        <time>2017-04-24T12:09:23Z</time>
      </trkpt>
      <trkpt lat="43.93636" lon="5.21657">
        <ele>503.39</ele>
        <time>2017-04-24T12:09:34Z</time>
      </trkpt>
      <trkpt lat="43.93627" lon="5.21656">
        <ele>502.91</ele>
        <time>2017-04-24T12:09:48Z</time>
      </trkpt>
      <trkpt lat="43.93619" lon="5.21648">
        <ele>502.91</ele>
        <time>2017-04-24T12:10:00Z</time>
      </trkpt>
      <trkpt lat="43.93614" lon="5.21645">
        <ele>503.87</ele>
        <time>2017-04-24T12:10:07Z</time>
      </trkpt>
      <trkpt lat="43.93604" lon="5.21647">
        <ele>504.83</ele>
        <time>2017-04-24T12:10:23Z</time>
      </trkpt>
      <trkpt lat="43.93597" lon="5.21652">
        <ele>505.79</ele>
        <time>2017-04-24T12:10:38Z</time>
      </trkpt>
      <trkpt lat="43.93595" lon="5.21654">
        <ele>503.87</ele>
        <time>2017-04-24T12:10:48Z</time>
      </trkpt>
      <trkpt lat="43.93595" lon="5.21654">
        <ele>505.31</ele>
        <time>2017-04-24T12:10:51Z</time>
      </trkpt>
      <trkpt lat="43.93594" lon="5.21655">
        <ele>503.87</ele>
        <time>2017-04-24T12:11:16Z</time>
      </trkpt>
      <trkpt lat="43.93594" lon="5.21655">
        <ele>505.31</ele>
        <time>2017-04-24T12:11:18Z</time>
      </trkpt>
      <trkpt lat="43.93594" lon="5.21655">
        <ele>505.31</ele>
        <time>2017-04-24T12:11:19Z</time>
      </trkpt>
      <trkpt lat="43.93586" lon="5.21661">
        <ele>505.31</ele>
        <time>2017-04-24T12:11:32Z</time>
      </trkpt>
      <trkpt lat="43.93579" lon="5.21654">
        <ele>505.79</ele>
        <time>2017-04-24T12:11:45Z</time>
      </trkpt>
      <trkpt lat="43.93576" lon="5.21652">
        <ele>506.27</ele>
        <time>2017-04-24T12:11:50Z</time>
      </trkpt>
      <trkpt lat="43.93569" lon="5.21645">
        <ele>506.75</ele>
        <time>2017-04-24T12:12:02Z</time>
      </trkpt>
      <trkpt lat="43.93563" lon="5.21633">
        <ele>507.71</ele>
        <time>2017-04-24T12:12:15Z</time>
      </trkpt>
      <trkpt lat="43.93557" lon="5.21622">
        <ele>508.19</ele>
        <time>2017-04-24T12:12:27Z</time>
      </trkpt>
      <trkpt lat="43.93548" lon="5.21614">
        <ele>508.67</ele>
        <time>2017-04-24T12:12:40Z</time>
      </trkpt>
      <trkpt lat="43.93541" lon="5.21606">
        <ele>509.16</ele>
        <time>2017-04-24T12:12:52Z</time>
      </trkpt>
      <trkpt lat="43.93534" lon="5.21597">
        <ele>509.16</ele>
        <time>2017-04-24T12:13:05Z</time>
      </trkpt>
      <trkpt lat="43.93526" lon="5.21587">
        <ele>509.16</ele>
        <time>2017-04-24T12:13:18Z</time>
      </trkpt>
      <trkpt lat="43.93514" lon="5.21578">
        <ele>509.16</ele>
        <time>2017-04-24T12:13:35Z</time>
      </trkpt>
      <trkpt lat="43.93506" lon="5.21574">
        <ele>507.71</ele>
        <time>2017-04-24T12:13:48Z</time>
      </trkpt>
      <trkpt lat="43.93498" lon="5.21569">
        <ele>507.23</ele>
        <time>2017-04-24T12:13:59Z</time>
      </trkpt>
      <trkpt lat="43.93488" lon="5.21563">
        <ele>506.75</ele>
        <time>2017-04-24T12:14:14Z</time>
      </trkpt>
      <trkpt lat="43.93478" lon="5.21556">
        <ele>505.79</ele>
        <time>2017-04-24T12:14:28Z</time>
      </trkpt>
      <trkpt lat="43.93469" lon="5.21552">
        <ele>506.27</ele>
        <time>2017-04-24T12:14:38Z</time>
      </trkpt>
      <trkpt lat="43.93459" lon="5.21546">
        <ele>505.79</ele>
        <time>2017-04-24T12:14:51Z</time>
      </trkpt>
      <trkpt lat="43.9345" lon="5.2154">
        <ele>504.83</ele>
        <time>2017-04-24T12:15:04Z</time>
      </trkpt>
      <trkpt lat="43.93439" lon="5.21536">
        <ele>504.83</ele>
        <time>2017-04-24T12:15:17Z</time>
      </trkpt>
      <trkpt lat="43.9343" lon="5.21531">
        <ele>504.35</ele>
        <time>2017-04-24T12:15:30Z</time>
      </trkpt>
      <trkpt lat="43.93427" lon="5.21528">
        <ele>504.35</ele>
        <time>2017-04-24T12:15:34Z</time>
      </trkpt>
      <trkpt lat="43.93415" lon="5.21523">
        <ele>504.35</ele>
        <time>2017-04-24T12:15:48Z</time>
      </trkpt>
      <trkpt lat="43.93409" lon="5.21519">
        <ele>504.35</ele>
        <time>2017-04-24T12:15:57Z</time>
      </trkpt>
      <trkpt lat="43.93399" lon="5.21506">
        <ele>503.39</ele>
        <time>2017-04-24T12:16:12Z</time>
      </trkpt>
      <trkpt lat="43.93387" lon="5.21499">
        <ele>502.91</ele>
        <time>2017-04-24T12:16:26Z</time>
      </trkpt>
      <trkpt lat="43.93379" lon="5.21488">
        <ele>502.43</ele>
        <time>2017-04-24T12:16:41Z</time>
      </trkpt>
      <trkpt lat="43.9337" lon="5.21474">
        <ele>501.46</ele>
        <time>2017-04-24T12:16:55Z</time>
      </trkpt>
      <trkpt lat="43.93362" lon="5.21463">
        <ele>500.5</ele>
        <time>2017-04-24T12:17:07Z</time>
      </trkpt>
      <trkpt lat="43.93357" lon="5.21456">
        <ele>499.06</ele>
        <time>2017-04-24T12:17:19Z</time>
      </trkpt>
      <trkpt lat="43.93352" lon="5.21442">
        <ele>498.58</ele>
        <time>2017-04-24T12:17:32Z</time>
      </trkpt>
      <trkpt lat="43.93342" lon="5.2143">
        <ele>496.18</ele>
        <time>2017-04-24T12:17:45Z</time>
      </trkpt>
      <trkpt lat="43.93335" lon="5.21419">
        <ele>493.77</ele>
        <time>2017-04-24T12:17:58Z</time>
      </trkpt>
      <trkpt lat="43.9333" lon="5.21414">
        <ele>493.29</ele>
        <time>2017-04-24T12:18:11Z</time>
      </trkpt>
      <trkpt lat="43.93329" lon="5.21413">
        <ele>493.29</ele>
        <time>2017-04-24T12:18:12Z</time>
      </trkpt>
      <trkpt lat="43.93328" lon="5.21408">
        <ele>492.81</ele>
        <time>2017-04-24T12:18:15Z</time>
      </trkpt>
      <trkpt lat="43.93318" lon="5.21396">
        <ele>489.93</ele>
        <time>2017-04-24T12:18:29Z</time>
      </trkpt>
      <trkpt lat="43.9331" lon="5.21386">
        <ele>487.53</ele>
        <time>2017-04-24T12:18:44Z</time>
      </trkpt>
      <trkpt lat="43.93301" lon="5.21381">
        <ele>484.64</ele>
        <time>2017-04-24T12:18:58Z</time>
      </trkpt>
      <trkpt lat="43.93298" lon="5.21378">
        <ele>482.72</ele>
        <time>2017-04-24T12:19:11Z</time>
      </trkpt>
      <trkpt lat="43.93297" lon="5.21377">
        <ele>484.16</ele>
        <time>2017-04-24T12:19:26Z</time>
      </trkpt>
      <trkpt lat="43.93295" lon="5.21376">
        <ele>483.2</ele>
        <time>2017-04-24T12:19:37Z</time>
      </trkpt>
      <trkpt lat="43.93288" lon="5.21371">
        <ele>481.28</ele>
        <time>2017-04-24T12:19:49Z</time>
      </trkpt>
      <trkpt lat="43.93285" lon="5.2137">
        <ele>479.84</ele>
        <time>2017-04-24T12:19:58Z</time>
      </trkpt>
      <trkpt lat="43.93275" lon="5.21361">
        <ele>477.43</ele>
        <time>2017-04-24T12:20:12Z</time>
      </trkpt>
      <trkpt lat="43.93264" lon="5.21355">
        <ele>474.07</ele>
        <time>2017-04-24T12:20:28Z</time>
      </trkpt>
      <trkpt lat="43.93252" lon="5.2135">
        <ele>471.66</ele>
        <time>2017-04-24T12:20:42Z</time>
      </trkpt>
      <trkpt lat="43.93237" lon="5.21345">
        <ele>468.78</ele>
        <time>2017-04-24T12:20:59Z</time>
      </trkpt>
      <trkpt lat="43.93229" lon="5.21333">
        <ele>465.9</ele>
        <time>2017-04-24T12:21:14Z</time>
      </trkpt>
      <trkpt lat="43.93224" lon="5.21328">
        <ele>464.93</ele>
        <time>2017-04-24T12:21:28Z</time>
      </trkpt>
      <trkpt lat="43.9322" lon="5.21326">
        <ele>464.45</ele>
        <time>2017-04-24T12:21:35Z</time>
      </trkpt>
      <trkpt lat="43.93207" lon="5.21325">
        <ele>463.01</ele>
        <time>2017-04-24T12:21:50Z</time>
      </trkpt>
      <trkpt lat="43.93192" lon="5.21319">
        <ele>462.53</ele>
        <time>2017-04-24T12:22:05Z</time>
      </trkpt>
      <trkpt lat="43.93177" lon="5.21315">
        <ele>462.05</ele>
        <time>2017-04-24T12:22:21Z</time>
      </trkpt>
      <trkpt lat="43.93163" lon="5.21318">
        <ele>460.13</ele>
        <time>2017-04-24T12:22:35Z</time>
      </trkpt>
      <trkpt lat="43.93146" lon="5.21312">
        <ele>458.21</ele>
        <time>2017-04-24T12:22:51Z</time>
      </trkpt>
      <trkpt lat="43.93128" lon="5.21301">
        <ele>456.28</ele>
        <time>2017-04-24T12:23:10Z</time>
      </trkpt>
      <trkpt lat="43.9312" lon="5.213">
        <ele>454.36</ele>
        <time>2017-04-24T12:23:20Z</time>
      </trkpt>
      <trkpt lat="43.93112" lon="5.21304">
        <ele>453.88</ele>
        <time>2017-04-24T12:23:35Z</time>
      </trkpt>
      <trkpt lat="43.93106" lon="5.21299">
        <ele>453.4</ele>
        <time>2017-04-24T12:23:57Z</time>
      </trkpt>
      <trkpt lat="43.93105" lon="5.21297">
        <ele>452.44</ele>
        <time>2017-04-24T12:24:00Z</time>
      </trkpt>
      <trkpt lat="43.93105" lon="5.21295">
        <ele>451.96</ele>
        <time>2017-04-24T12:24:24Z</time>
      </trkpt>
      <trkpt lat="43.93102" lon="5.213">
        <ele>451.48</ele>
        <time>2017-04-24T12:25:02Z</time>
      </trkpt>
      <trkpt lat="43.93101" lon="5.21301">
        <ele>450.52</ele>
        <time>2017-04-24T12:25:11Z</time>
      </trkpt>
      <trkpt lat="43.93103" lon="5.21303">
        <ele>451.96</ele>
        <time>2017-04-24T12:25:32Z</time>
      </trkpt>
      <trkpt lat="43.93102" lon="5.21303">
        <ele>451.96</ele>
        <time>2017-04-24T12:25:53Z</time>
      </trkpt>
      <trkpt lat="43.931" lon="5.21304">
        <ele>451.48</ele>
        <time>2017-04-24T12:26:19Z</time>
      </trkpt>
      <trkpt lat="43.93099" lon="5.21301">
        <ele>451.48</ele>
        <time>2017-04-24T12:26:36Z</time>
      </trkpt>
      <trkpt lat="43.93098" lon="5.21297">
        <ele>452.92</ele>
        <time>2017-04-24T12:26:53Z</time>
      </trkpt>
      <trkpt lat="43.9309" lon="5.21276">
        <ele>452.92</ele>
        <time>2017-04-24T12:27:09Z</time>
      </trkpt>
      <trkpt lat="43.93084" lon="5.21264">
        <ele>452.44</ele>
        <time>2017-04-24T12:27:24Z</time>
      </trkpt>
      <trkpt lat="43.93072" lon="5.21249">
        <ele>452.92</ele>
        <time>2017-04-24T12:27:39Z</time>
      </trkpt>
      <trkpt lat="43.93058" lon="5.21239">
        <ele>454.36</ele>
        <time>2017-04-24T12:27:56Z</time>
      </trkpt>
      <trkpt lat="43.93052" lon="5.21242">
        <ele>455.8</ele>
        <time>2017-04-24T12:28:04Z</time>
      </trkpt>
      <trkpt lat="43.93049" lon="5.21244">
        <ele>456.28</ele>
        <time>2017-04-24T12:28:09Z</time>
      </trkpt>
      <trkpt lat="43.93038" lon="5.21243">
        <ele>458.21</ele>
        <time>2017-04-24T12:28:24Z</time>
      </trkpt>
      <trkpt lat="43.93023" lon="5.21238">
        <ele>460.13</ele>
        <time>2017-04-24T12:28:40Z</time>
      </trkpt>
      <trkpt lat="43.93013" lon="5.21238">
        <ele>463.01</ele>
        <time>2017-04-24T12:28:52Z</time>
      </trkpt>
      <trkpt lat="43.93002" lon="5.21229">
        <ele>464.93</ele>
        <time>2017-04-24T12:29:07Z</time>
      </trkpt>
      <trkpt lat="43.93003" lon="5.21225">
        <ele>465.42</ele>
        <time>2017-04-24T12:29:22Z</time>
      </trkpt>
      <trkpt lat="43.93002" lon="5.21227">
        <ele>465.42</ele>
        <time>2017-04-24T12:29:43Z</time>
      </trkpt>
      <trkpt lat="43.93002" lon="5.21222">
        <ele>465.42</ele>
        <time>2017-04-24T12:29:54Z</time>
      </trkpt>
      <trkpt lat="43.93006" lon="5.21205">
        <ele>466.86</ele>
        <time>2017-04-24T12:30:09Z</time>
      </trkpt>
      <trkpt lat="43.93008" lon="5.212">
        <ele>467.34</ele>
        <time>2017-04-24T12:30:13Z</time>
      </trkpt>
      <trkpt lat="43.93012" lon="5.21192">
        <ele>469.26</ele>
        <time>2017-04-24T12:30:21Z</time>
      </trkpt>
      <trkpt lat="43.93019" lon="5.21179">
        <ele>470.22</ele>
        <time>2017-04-24T12:30:34Z</time>
      </trkpt>
      <trkpt lat="43.93023" lon="5.21161">
        <ele>471.66</ele>
        <time>2017-04-24T12:30:49Z</time>
      </trkpt>
      <trkpt lat="43.93019" lon="5.21141">
        <ele>472.63</ele>
        <time>2017-04-24T12:31:03Z</time>
      </trkpt>
      <trkpt lat="43.93015" lon="5.21128">
        <ele>473.59</ele>
        <time>2017-04-24T12:31:14Z</time>
      </trkpt>
      <trkpt lat="43.93005" lon="5.21112">
        <ele>473.59</ele>
        <time>2017-04-24T12:31:29Z</time>
      </trkpt>
      <trkpt lat="43.93004" lon="5.21109">
        <ele>474.55</ele>
        <time>2017-04-24T12:31:45Z</time>
      </trkpt>
      <trkpt lat="43.93002" lon="5.21102">
        <ele>474.07</ele>
        <time>2017-04-24T12:31:52Z</time>
      </trkpt>
      <trkpt lat="43.93001" lon="5.21102">
        <ele>475.99</ele>
        <time>2017-04-24T12:31:54Z</time>
      </trkpt>
      <trkpt lat="43.93002" lon="5.21102">
        <ele>474.55</ele>
        <time>2017-04-24T12:31:59Z</time>
      </trkpt>
      <trkpt lat="43.93001" lon="5.21101">
        <ele>475.99</ele>
        <time>2017-04-24T12:32:10Z</time>
      </trkpt>
      <trkpt lat="43.93" lon="5.21101">
        <ele>474.55</ele>
        <time>2017-04-24T12:32:18Z</time>
      </trkpt>
      <trkpt lat="43.92999" lon="5.211">
        <ele>475.03</ele>
        <time>2017-04-24T12:32:30Z</time>
      </trkpt>
      <trkpt lat="43.92998" lon="5.211">
        <ele>475.03</ele>
        <time>2017-04-24T12:32:52Z</time>
      </trkpt>
      <trkpt lat="43.92991" lon="5.2109">
        <ele>475.03</ele>
        <time>2017-04-24T12:33:12Z</time>
      </trkpt>
      <trkpt lat="43.92989" lon="5.21088">
        <ele>475.03</ele>
        <time>2017-04-24T12:33:15Z</time>
      </trkpt>
      <trkpt lat="43.92975" lon="5.21076">
        <ele>473.59</ele>
        <time>2017-04-24T12:33:33Z</time>
      </trkpt>
      <trkpt lat="43.92974" lon="5.21075">
        <ele>473.59</ele>
        <time>2017-04-24T12:33:35Z</time>
      </trkpt>
      <trkpt lat="43.92959" lon="5.21061">
        <ele>473.11</ele>
        <time>2017-04-24T12:33:51Z</time>
      </trkpt>
      <trkpt lat="43.92956" lon="5.21059">
        <ele>473.11</ele>
        <time>2017-04-24T12:33:54Z</time>
      </trkpt>
      <trkpt lat="43.92942" lon="5.21047">
        <ele>472.63</ele>
        <time>2017-04-24T12:34:09Z</time>
      </trkpt>
      <trkpt lat="43.92924" lon="5.21031">
        <ele>472.14</ele>
        <time>2017-04-24T12:34:27Z</time>
      </trkpt>
      <trkpt lat="43.92909" lon="5.21012">
        <ele>470.7</ele>
        <time>2017-04-24T12:34:43Z</time>
      </trkpt>
      <trkpt lat="43.92894" lon="5.20985">
        <ele>469.26</ele>
        <time>2017-04-24T12:35:04Z</time>
      </trkpt>
      <trkpt lat="43.92883" lon="5.20956">
        <ele>468.78</ele>
        <time>2017-04-24T12:35:24Z</time>
      </trkpt>
      <trkpt lat="43.92875" lon="5.20934">
        <ele>467.82</ele>
        <time>2017-04-24T12:35:42Z</time>
      </trkpt>
      <trkpt lat="43.92865" lon="5.20907">
        <ele>467.34</ele>
        <time>2017-04-24T12:36:01Z</time>
      </trkpt>
      <trkpt lat="43.92851" lon="5.20883">
        <ele>465.42</ele>
        <time>2017-04-24T12:36:21Z</time>
      </trkpt>
      <trkpt lat="43.92834" lon="5.20869">
        <ele>464.45</ele>
        <time>2017-04-24T12:36:40Z</time>
      </trkpt>
      <trkpt lat="43.92833" lon="5.2087">
        <ele>464.45</ele>
        <time>2017-04-24T12:36:49Z</time>
      </trkpt>
      <trkpt lat="43.9283" lon="5.20863">
        <ele>463.97</ele>
        <time>2017-04-24T12:36:55Z</time>
      </trkpt>
      <trkpt lat="43.92825" lon="5.20853">
        <ele>463.49</ele>
        <time>2017-04-24T12:37:02Z</time>
      </trkpt>
      <trkpt lat="43.92812" lon="5.20839">
        <ele>463.49</ele>
        <time>2017-04-24T12:37:18Z</time>
      </trkpt>
      <trkpt lat="43.92807" lon="5.20834">
        <ele>463.49</ele>
        <time>2017-04-24T12:37:33Z</time>
      </trkpt>
    </trkseg>
  </trk>
</gpx>